<?xml version="1.0" encoding="UTF-8" standalone="no" ?>
<gpx xmlns="http://www.topografix.com/GPX/1/1" xmlns:xsi="http://www.w3.org/2001/XMLSchema-instance" xsi:schemaLocation="http://www.topografix.com/GPX/1/1 http://www.topografix.com/GPX/1/1/gpx.xsd" version="1.1" creator="VisuGPX - https://www.visugpx.com">
  <metadata>
    <name>Aiguille de Laisse</name>
    <desc><![CDATA[Une dernière pour la route sous un soleil radieux ...
]]></desc>
  </metadata>
  <trk>
    <name><![CDATA[Aiguille de Laisse]]></name>
    <cmt><![CDATA[Changements effectués avec After Import Plugin Version 1.1.3626 sur 17/05/2015 20:14:28:
- effacer les valeurs inutiles de  fréquence cardiaque (3823/3825)
- effacer les points inutiles de la piste GPS (3100/3825)
]]></cmt>
    <trkseg>
      <trkpt lat="45.22422" lon="6.19002">
        <ele>2208.0349121094</ele>
        <time>2015-05-17T05:47:11Z</time>
      </trkpt>
      <trkpt lat="45.22403" lon="6.18975">
        <ele>2215.5812988281</ele>
        <time>2015-05-17T05:47:54Z</time>
      </trkpt>
      <trkpt lat="45.22366" lon="6.18947">
        <ele>2225.5397949219</ele>
        <time>2015-05-17T05:49:00Z</time>
      </trkpt>
      <trkpt lat="45.22348" lon="6.18925">
        <ele>2229.5209960938</ele>
        <time>2015-05-17T05:49:38Z</time>
      </trkpt>
      <trkpt lat="45.2233" lon="6.18909">
        <ele>2233.2072753906</ele>
        <time>2015-05-17T05:49:45Z</time>
      </trkpt>
      <trkpt lat="45.22316" lon="6.18906">
        <ele>2236.4226074219</ele>
        <time>2015-05-17T05:50:10Z</time>
      </trkpt>
      <trkpt lat="45.22313" lon="6.18906">
        <ele>2237.1337890625</ele>
        <time>2015-05-17T05:50:15Z</time>
      </trkpt>
      <trkpt lat="45.22299" lon="6.18893">
        <ele>2237.2841796875</ele>
        <time>2015-05-17T05:50:42Z</time>
      </trkpt>
      <trkpt lat="45.22294" lon="6.18899">
        <ele>2239.4401855469</ele>
        <time>2015-05-17T05:50:54Z</time>
      </trkpt>
      <trkpt lat="45.22291" lon="6.18897">
        <ele>2239.548828125</ele>
        <time>2015-05-17T05:50:58Z</time>
      </trkpt>
      <trkpt lat="45.22289" lon="6.18895">
        <ele>2239.4084472656</ele>
        <time>2015-05-17T05:51:04Z</time>
      </trkpt>
      <trkpt lat="45.22286" lon="6.18906">
        <ele>2242.4326171875</ele>
        <time>2015-05-17T05:51:28Z</time>
      </trkpt>
      <trkpt lat="45.22286" lon="6.18914">
        <ele>2244.1232910156</ele>
        <time>2015-05-17T05:51:40Z</time>
      </trkpt>
      <trkpt lat="45.22276" lon="6.18904">
        <ele>2244.0285644531</ele>
        <time>2015-05-17T05:51:59Z</time>
      </trkpt>
      <trkpt lat="45.22269" lon="6.18903">
        <ele>2246.0895996094</ele>
        <time>2015-05-17T05:52:10Z</time>
      </trkpt>
      <trkpt lat="45.22264" lon="6.18903">
        <ele>2247.9501953125</ele>
        <time>2015-05-17T05:52:20Z</time>
      </trkpt>
      <trkpt lat="45.22255" lon="6.18899">
        <ele>2250.1428222656</ele>
        <time>2015-05-17T05:52:36Z</time>
      </trkpt>
      <trkpt lat="45.22255" lon="6.1892">
        <ele>2253.984375</ele>
        <time>2015-05-17T05:52:42Z</time>
      </trkpt>
      <trkpt lat="45.22255" lon="6.18922">
        <ele>2254.3703613281</ele>
        <time>2015-05-17T05:52:45Z</time>
      </trkpt>
      <trkpt lat="45.22244" lon="6.18925">
        <ele>2256.9326171875</ele>
        <time>2015-05-17T05:53:10Z</time>
      </trkpt>
      <trkpt lat="45.22223" lon="6.18932">
        <ele>2259.0895996094</ele>
        <time>2015-05-17T05:53:31Z</time>
      </trkpt>
      <trkpt lat="45.22216" lon="6.18943">
        <ele>2260.1547851562</ele>
        <time>2015-05-17T05:53:43Z</time>
      </trkpt>
      <trkpt lat="45.22208" lon="6.18948">
        <ele>2260.7861328125</ele>
        <time>2015-05-17T05:53:55Z</time>
      </trkpt>
      <trkpt lat="45.22193" lon="6.18946">
        <ele>2261.4931640625</ele>
        <time>2015-05-17T05:54:17Z</time>
      </trkpt>
      <trkpt lat="45.22184" lon="6.18945">
        <ele>2263.6921386719</ele>
        <time>2015-05-17T05:54:32Z</time>
      </trkpt>
      <trkpt lat="45.22178" lon="6.18941">
        <ele>2264.9396972656</ele>
        <time>2015-05-17T05:54:41Z</time>
      </trkpt>
      <trkpt lat="45.22172" lon="6.18942">
        <ele>2266.4606933594</ele>
        <time>2015-05-17T05:54:49Z</time>
      </trkpt>
      <trkpt lat="45.22156" lon="6.18937">
        <ele>2269.8200683594</ele>
        <time>2015-05-17T05:55:07Z</time>
      </trkpt>
      <trkpt lat="45.22147" lon="6.1893">
        <ele>2271.5703125</ele>
        <time>2015-05-17T05:55:21Z</time>
      </trkpt>
      <trkpt lat="45.22144" lon="6.18928">
        <ele>2272.107421875</ele>
        <time>2015-05-17T05:55:24Z</time>
      </trkpt>
      <trkpt lat="45.22136" lon="6.18916">
        <ele>2273.9162597656</ele>
        <time>2015-05-17T05:55:39Z</time>
      </trkpt>
      <trkpt lat="45.22133" lon="6.18905">
        <ele>2275.1459960938</ele>
        <time>2015-05-17T05:55:50Z</time>
      </trkpt>
      <trkpt lat="45.22125" lon="6.18902">
        <ele>2276.9645996094</ele>
        <time>2015-05-17T05:55:59Z</time>
      </trkpt>
      <trkpt lat="45.22117" lon="6.1889">
        <ele>2278.947265625</ele>
        <time>2015-05-17T05:56:18Z</time>
      </trkpt>
      <trkpt lat="45.22108" lon="6.18886">
        <ele>2280</ele>
        <time>2015-05-17T05:56:27Z</time>
      </trkpt>
      <trkpt lat="45.22103" lon="6.1888">
        <ele>2280</ele>
        <time>2015-05-17T05:56:40Z</time>
      </trkpt>
      <trkpt lat="45.22104" lon="6.18874">
        <ele>2280</ele>
        <time>2015-05-17T05:56:51Z</time>
      </trkpt>
      <trkpt lat="45.22078" lon="6.18872">
        <ele>2280</ele>
        <time>2015-05-17T05:57:07Z</time>
      </trkpt>
      <trkpt lat="45.22058" lon="6.18865">
        <ele>2280</ele>
        <time>2015-05-17T05:57:36Z</time>
      </trkpt>
      <trkpt lat="45.22035" lon="6.18852">
        <ele>2280</ele>
        <time>2015-05-17T05:57:59Z</time>
      </trkpt>
      <trkpt lat="45.22015" lon="6.18848">
        <ele>2280.2395019531</ele>
        <time>2015-05-17T05:58:23Z</time>
      </trkpt>
      <trkpt lat="45.22009" lon="6.18848">
        <ele>2280.3540039062</ele>
        <time>2015-05-17T05:58:31Z</time>
      </trkpt>
      <trkpt lat="45.21993" lon="6.18837">
        <ele>2281.625</ele>
        <time>2015-05-17T05:58:53Z</time>
      </trkpt>
      <trkpt lat="45.2198" lon="6.18829">
        <ele>2284.2687988281</ele>
        <time>2015-05-17T05:59:11Z</time>
      </trkpt>
      <trkpt lat="45.21954" lon="6.18812">
        <ele>2292.3322753906</ele>
        <time>2015-05-17T05:59:49Z</time>
      </trkpt>
      <trkpt lat="45.21944" lon="6.18808">
        <ele>2294.9033203125</ele>
        <time>2015-05-17T06:00:02Z</time>
      </trkpt>
      <trkpt lat="45.21938" lon="6.188">
        <ele>2296.5517578125</ele>
        <time>2015-05-17T06:00:14Z</time>
      </trkpt>
      <trkpt lat="45.21889" lon="6.18769">
        <ele>2305.0336914062</ele>
        <time>2015-05-17T06:01:24Z</time>
      </trkpt>
      <trkpt lat="45.21882" lon="6.18764">
        <ele>2306.4345703125</ele>
        <time>2015-05-17T06:01:34Z</time>
      </trkpt>
      <trkpt lat="45.21869" lon="6.18753">
        <ele>2309.2358398438</ele>
        <time>2015-05-17T06:01:54Z</time>
      </trkpt>
      <trkpt lat="45.21856" lon="6.18734">
        <ele>2313.4958496094</ele>
        <time>2015-05-17T06:02:23Z</time>
      </trkpt>
      <trkpt lat="45.21843" lon="6.18724">
        <ele>2316.4450683594</ele>
        <time>2015-05-17T06:02:41Z</time>
      </trkpt>
      <trkpt lat="45.21828" lon="6.18711">
        <ele>2320.0620117188</ele>
        <time>2015-05-17T06:03:05Z</time>
      </trkpt>
      <trkpt lat="45.21812" lon="6.18694">
        <ele>2326.5344238281</ele>
        <time>2015-05-17T06:03:32Z</time>
      </trkpt>
      <trkpt lat="45.21805" lon="6.1869">
        <ele>2329.5805664062</ele>
        <time>2015-05-17T06:03:42Z</time>
      </trkpt>
      <trkpt lat="45.21788" lon="6.18668">
        <ele>2334.5158691406</ele>
        <time>2015-05-17T06:04:08Z</time>
      </trkpt>
      <trkpt lat="45.21764" lon="6.18641">
        <ele>2337.9204101562</ele>
        <time>2015-05-17T06:04:40Z</time>
      </trkpt>
      <trkpt lat="45.21763" lon="6.1864">
        <ele>2338.0612792969</ele>
        <time>2015-05-17T06:04:42Z</time>
      </trkpt>
      <trkpt lat="45.21752" lon="6.18623">
        <ele>2339.4360351562</ele>
        <time>2015-05-17T06:05:00Z</time>
      </trkpt>
      <trkpt lat="45.21721" lon="6.1857">
        <ele>2340</ele>
        <time>2015-05-17T06:05:50Z</time>
      </trkpt>
      <trkpt lat="45.2171" lon="6.18539">
        <ele>2340</ele>
        <time>2015-05-17T06:06:22Z</time>
      </trkpt>
      <trkpt lat="45.21708" lon="6.18535">
        <ele>2340</ele>
        <time>2015-05-17T06:06:26Z</time>
      </trkpt>
      <trkpt lat="45.21701" lon="6.18523">
        <ele>2341.6018066406</ele>
        <time>2015-05-17T06:06:43Z</time>
      </trkpt>
      <trkpt lat="45.21694" lon="6.18512">
        <ele>2344.9899902344</ele>
        <time>2015-05-17T06:07:00Z</time>
      </trkpt>
      <trkpt lat="45.21693" lon="6.18511">
        <ele>2345.4331054688</ele>
        <time>2015-05-17T06:07:02Z</time>
      </trkpt>
      <trkpt lat="45.21685" lon="6.18482">
        <ele>2355.5456542969</ele>
        <time>2015-05-17T06:07:38Z</time>
      </trkpt>
      <trkpt lat="45.21675" lon="6.1847">
        <ele>2359.9985351562</ele>
        <time>2015-05-17T06:08:02Z</time>
      </trkpt>
      <trkpt lat="45.21675" lon="6.18468">
        <ele>2360.4096679688</ele>
        <time>2015-05-17T06:08:04Z</time>
      </trkpt>
      <trkpt lat="45.2167" lon="6.18448">
        <ele>2365.9306640625</ele>
        <time>2015-05-17T06:08:24Z</time>
      </trkpt>
      <trkpt lat="45.21667" lon="6.18445">
        <ele>2366.9318847656</ele>
        <time>2015-05-17T06:08:28Z</time>
      </trkpt>
      <trkpt lat="45.2165" lon="6.18435">
        <ele>2367.8759765625</ele>
        <time>2015-05-17T06:08:48Z</time>
      </trkpt>
      <trkpt lat="45.21648" lon="6.18434">
        <ele>2367.9001464844</ele>
        <time>2015-05-17T06:08:50Z</time>
      </trkpt>
      <trkpt lat="45.21622" lon="6.18427">
        <ele>2367.7995605469</ele>
        <time>2015-05-17T06:09:20Z</time>
      </trkpt>
      <trkpt lat="45.21597" lon="6.18416">
        <ele>2368.6018066406</ele>
        <time>2015-05-17T06:09:47Z</time>
      </trkpt>
      <trkpt lat="45.21574" lon="6.18406">
        <ele>2371.2163085938</ele>
        <time>2015-05-17T06:10:13Z</time>
      </trkpt>
      <trkpt lat="45.21569" lon="6.18404">
        <ele>2372.4250488281</ele>
        <time>2015-05-17T06:10:19Z</time>
      </trkpt>
      <trkpt lat="45.21537" lon="6.18382">
        <ele>2383.1252441406</ele>
        <time>2015-05-17T06:11:04Z</time>
      </trkpt>
      <trkpt lat="45.21521" lon="6.18368">
        <ele>2387.7229003906</ele>
        <time>2015-05-17T06:11:29Z</time>
      </trkpt>
      <trkpt lat="45.21498" lon="6.18347">
        <ele>2396.1708984375</ele>
        <time>2015-05-17T06:12:09Z</time>
      </trkpt>
      <trkpt lat="45.21484" lon="6.18337">
        <ele>2400.3811035156</ele>
        <time>2015-05-17T06:12:34Z</time>
      </trkpt>
      <trkpt lat="45.2145" lon="6.18317">
        <ele>2407.728515625</ele>
        <time>2015-05-17T06:13:32Z</time>
      </trkpt>
      <trkpt lat="45.21448" lon="6.18314">
        <ele>2408.2668457031</ele>
        <time>2015-05-17T06:13:37Z</time>
      </trkpt>
      <trkpt lat="45.21435" lon="6.18303">
        <ele>2414.3129882812</ele>
        <time>2015-05-17T06:14:01Z</time>
      </trkpt>
      <trkpt lat="45.21421" lon="6.18292">
        <ele>2421.9794921875</ele>
        <time>2015-05-17T06:14:27Z</time>
      </trkpt>
      <trkpt lat="45.21418" lon="6.1829">
        <ele>2423.6411132812</ele>
        <time>2015-05-17T06:14:33Z</time>
      </trkpt>
      <trkpt lat="45.21405" lon="6.18282">
        <ele>2428.6359863281</ele>
        <time>2015-05-17T06:14:57Z</time>
      </trkpt>
      <trkpt lat="45.21396" lon="6.18276">
        <ele>2431.8803710938</ele>
        <time>2015-05-17T06:15:13Z</time>
      </trkpt>
      <trkpt lat="45.21368" lon="6.18237">
        <ele>2443.8037109375</ele>
        <time>2015-05-17T06:16:21Z</time>
      </trkpt>
      <trkpt lat="45.21363" lon="6.1823">
        <ele>2445.4899902344</ele>
        <time>2015-05-17T06:16:33Z</time>
      </trkpt>
      <trkpt lat="45.21361" lon="6.18228">
        <ele>2446.0815429688</ele>
        <time>2015-05-17T06:16:39Z</time>
      </trkpt>
      <trkpt lat="45.21355" lon="6.18221">
        <ele>2448.9274902344</ele>
        <time>2015-05-17T06:16:44Z</time>
      </trkpt>
      <trkpt lat="45.21336" lon="6.18202">
        <ele>2459.1892089844</ele>
        <time>2015-05-17T06:17:21Z</time>
      </trkpt>
      <trkpt lat="45.21322" lon="6.18189">
        <ele>2463.2158203125</ele>
        <time>2015-05-17T06:17:45Z</time>
      </trkpt>
      <trkpt lat="45.21308" lon="6.18175">
        <ele>2466.2863769531</ele>
        <time>2015-05-17T06:18:11Z</time>
      </trkpt>
      <trkpt lat="45.21297" lon="6.18161">
        <ele>2470.361328125</ele>
        <time>2015-05-17T06:18:35Z</time>
      </trkpt>
      <trkpt lat="45.21279" lon="6.18142">
        <ele>2477.109375</ele>
        <time>2015-05-17T06:19:15Z</time>
      </trkpt>
      <trkpt lat="45.2126" lon="6.1812">
        <ele>2485.8603515625</ele>
        <time>2015-05-17T06:20:00Z</time>
      </trkpt>
      <trkpt lat="45.21241" lon="6.18105">
        <ele>2493.1962890625</ele>
        <time>2015-05-17T06:20:41Z</time>
      </trkpt>
      <trkpt lat="45.21194" lon="6.18069">
        <ele>2510.0437011719</ele>
        <time>2015-05-17T06:22:12Z</time>
      </trkpt>
      <trkpt lat="45.21186" lon="6.18063">
        <ele>2512.5756835938</ele>
        <time>2015-05-17T06:22:26Z</time>
      </trkpt>
      <trkpt lat="45.21173" lon="6.18049">
        <ele>2516.6752929688</ele>
        <time>2015-05-17T06:22:53Z</time>
      </trkpt>
      <trkpt lat="45.21138" lon="6.1801">
        <ele>2525.4577636719</ele>
        <time>2015-05-17T06:24:03Z</time>
      </trkpt>
      <trkpt lat="45.21136" lon="6.18008">
        <ele>2525.8850097656</ele>
        <time>2015-05-17T06:24:07Z</time>
      </trkpt>
      <trkpt lat="45.21104" lon="6.17994">
        <ele>2530.890625</ele>
        <time>2015-05-17T06:24:45Z</time>
      </trkpt>
      <trkpt lat="45.21089" lon="6.17989">
        <ele>2532.9282226562</ele>
        <time>2015-05-17T06:25:03Z</time>
      </trkpt>
      <trkpt lat="45.21077" lon="6.17986">
        <ele>2533.9116210938</ele>
        <time>2015-05-17T06:25:19Z</time>
      </trkpt>
      <trkpt lat="45.21053" lon="6.17979">
        <ele>2534.857421875</ele>
        <time>2015-05-17T06:25:44Z</time>
      </trkpt>
      <trkpt lat="45.2105" lon="6.17978">
        <ele>2534.8798828125</ele>
        <time>2015-05-17T06:25:48Z</time>
      </trkpt>
      <trkpt lat="45.21032" lon="6.17966">
        <ele>2534.2331542969</ele>
        <time>2015-05-17T06:26:02Z</time>
      </trkpt>
      <trkpt lat="45.20937" lon="6.1793">
        <ele>2528.1948242188</ele>
        <time>2015-05-17T06:26:36Z</time>
      </trkpt>
      <trkpt lat="45.20903" lon="6.17924">
        <ele>2526.5153808594</ele>
        <time>2015-05-17T06:26:50Z</time>
      </trkpt>
      <trkpt lat="45.20892" lon="6.17919">
        <ele>2525.5258789062</ele>
        <time>2015-05-17T06:26:54Z</time>
      </trkpt>
      <trkpt lat="45.20873" lon="6.17909">
        <ele>2524.6125488281</ele>
        <time>2015-05-17T06:26:58Z</time>
      </trkpt>
      <trkpt lat="45.20843" lon="6.17901">
        <ele>2521.2087402344</ele>
        <time>2015-05-17T06:27:04Z</time>
      </trkpt>
      <trkpt lat="45.20825" lon="6.17895">
        <ele>2518.3662109375</ele>
        <time>2015-05-17T06:27:10Z</time>
      </trkpt>
      <trkpt lat="45.20808" lon="6.17886">
        <ele>2515.3918457031</ele>
        <time>2015-05-17T06:27:14Z</time>
      </trkpt>
      <trkpt lat="45.20801" lon="6.17869">
        <ele>2511.6533203125</ele>
        <time>2015-05-17T06:27:21Z</time>
      </trkpt>
      <trkpt lat="45.20795" lon="6.17861">
        <ele>2509.5590820312</ele>
        <time>2015-05-17T06:27:23Z</time>
      </trkpt>
      <trkpt lat="45.20784" lon="6.17841">
        <ele>2503.671875</ele>
        <time>2015-05-17T06:27:37Z</time>
      </trkpt>
      <trkpt lat="45.2078" lon="6.17841">
        <ele>2503.3676757812</ele>
        <time>2015-05-17T06:27:46Z</time>
      </trkpt>
      <trkpt lat="45.20775" lon="6.1784">
        <ele>2502.5490722656</ele>
        <time>2015-05-17T06:27:58Z</time>
      </trkpt>
      <trkpt lat="45.20755" lon="6.17833">
        <ele>2497.6501464844</ele>
        <time>2015-05-17T06:28:13Z</time>
      </trkpt>
      <trkpt lat="45.20742" lon="6.17838">
        <ele>2498.7834472656</ele>
        <time>2015-05-17T06:28:26Z</time>
      </trkpt>
      <trkpt lat="45.20737" lon="6.1784">
        <ele>2499.3327636719</ele>
        <time>2015-05-17T06:28:41Z</time>
      </trkpt>
      <trkpt lat="45.20736" lon="6.17841">
        <ele>2499.693359375</ele>
        <time>2015-05-17T06:28:46Z</time>
      </trkpt>
      <trkpt lat="45.20734" lon="6.1784">
        <ele>2499.4013671875</ele>
        <time>2015-05-17T06:28:49Z</time>
      </trkpt>
      <trkpt lat="45.20729" lon="6.17838">
        <ele>2498.5773925781</ele>
        <time>2015-05-17T06:28:53Z</time>
      </trkpt>
      <trkpt lat="45.20719" lon="6.17837">
        <ele>2498.3569335938</ele>
        <time>2015-05-17T06:28:57Z</time>
      </trkpt>
      <trkpt lat="45.20712" lon="6.17829">
        <ele>2496.5651855469</ele>
        <time>2015-05-17T06:28:59Z</time>
      </trkpt>
      <trkpt lat="45.20709" lon="6.17817">
        <ele>2493.5500488281</ele>
        <time>2015-05-17T06:29:01Z</time>
      </trkpt>
      <trkpt lat="45.20716" lon="6.17795">
        <ele>2486.953125</ele>
        <time>2015-05-17T06:29:08Z</time>
      </trkpt>
      <trkpt lat="45.20723" lon="6.17786">
        <ele>2483.7385253906</ele>
        <time>2015-05-17T06:29:10Z</time>
      </trkpt>
      <trkpt lat="45.20739" lon="6.17776">
        <ele>2479.7924804688</ele>
        <time>2015-05-17T06:29:14Z</time>
      </trkpt>
      <trkpt lat="45.20747" lon="6.17767">
        <ele>2477.1101074219</ele>
        <time>2015-05-17T06:29:16Z</time>
      </trkpt>
      <trkpt lat="45.20753" lon="6.17763">
        <ele>2475.9089355469</ele>
        <time>2015-05-17T06:29:18Z</time>
      </trkpt>
      <trkpt lat="45.2076" lon="6.17754">
        <ele>2473.51953125</ele>
        <time>2015-05-17T06:29:23Z</time>
      </trkpt>
      <trkpt lat="45.20775" lon="6.17741">
        <ele>2470.45703125</ele>
        <time>2015-05-17T06:29:27Z</time>
      </trkpt>
      <trkpt lat="45.2078" lon="6.17731">
        <ele>2467.6684570312</ele>
        <time>2015-05-17T06:29:29Z</time>
      </trkpt>
      <trkpt lat="45.20784" lon="6.17709">
        <ele>2461.3657226562</ele>
        <time>2015-05-17T06:29:33Z</time>
      </trkpt>
      <trkpt lat="45.20786" lon="6.17673">
        <ele>2451.9990234375</ele>
        <time>2015-05-17T06:29:39Z</time>
      </trkpt>
      <trkpt lat="45.20782" lon="6.17664">
        <ele>2449.4343261719</ele>
        <time>2015-05-17T06:29:41Z</time>
      </trkpt>
      <trkpt lat="45.20776" lon="6.17658">
        <ele>2447.2995605469</ele>
        <time>2015-05-17T06:29:43Z</time>
      </trkpt>
      <trkpt lat="45.20767" lon="6.17653">
        <ele>2444.6352539062</ele>
        <time>2015-05-17T06:29:45Z</time>
      </trkpt>
      <trkpt lat="45.20747" lon="6.17655">
        <ele>2442.3698730469</ele>
        <time>2015-05-17T06:29:49Z</time>
      </trkpt>
      <trkpt lat="45.20725" lon="6.17652">
        <ele>2438.5368652344</ele>
        <time>2015-05-17T06:29:53Z</time>
      </trkpt>
      <trkpt lat="45.20719" lon="6.1765">
        <ele>2436.7534179688</ele>
        <time>2015-05-17T06:29:55Z</time>
      </trkpt>
      <trkpt lat="45.20729" lon="6.17638">
        <ele>2434.9191894531</ele>
        <time>2015-05-17T06:30:00Z</time>
      </trkpt>
      <trkpt lat="45.2073" lon="6.17631">
        <ele>2432.841796875</ele>
        <time>2015-05-17T06:30:04Z</time>
      </trkpt>
      <trkpt lat="45.20729" lon="6.17627">
        <ele>2431.3657226562</ele>
        <time>2015-05-17T06:30:06Z</time>
      </trkpt>
      <trkpt lat="45.20718" lon="6.17617">
        <ele>2425.6181640625</ele>
        <time>2015-05-17T06:30:13Z</time>
      </trkpt>
      <trkpt lat="45.20716" lon="6.17615">
        <ele>2424.4919433594</ele>
        <time>2015-05-17T06:30:18Z</time>
      </trkpt>
      <trkpt lat="45.20711" lon="6.17585">
        <ele>2415.8859863281</ele>
        <time>2015-05-17T06:30:22Z</time>
      </trkpt>
      <trkpt lat="45.20706" lon="6.17573">
        <ele>2413.0905761719</ele>
        <time>2015-05-17T06:30:24Z</time>
      </trkpt>
      <trkpt lat="45.20697" lon="6.17547">
        <ele>2407.1020507812</ele>
        <time>2015-05-17T06:30:30Z</time>
      </trkpt>
      <trkpt lat="45.20695" lon="6.17538">
        <ele>2405.0380859375</ele>
        <time>2015-05-17T06:30:34Z</time>
      </trkpt>
      <trkpt lat="45.20694" lon="6.17535">
        <ele>2404.2336425781</ele>
        <time>2015-05-17T06:30:37Z</time>
      </trkpt>
      <trkpt lat="45.20693" lon="6.17531">
        <ele>2403.2602539062</ele>
        <time>2015-05-17T06:30:44Z</time>
      </trkpt>
      <trkpt lat="45.20694" lon="6.17528">
        <ele>2402.7951660156</ele>
        <time>2015-05-17T06:30:49Z</time>
      </trkpt>
      <trkpt lat="45.20693" lon="6.17524">
        <ele>2401.8901367188</ele>
        <time>2015-05-17T06:30:51Z</time>
      </trkpt>
      <trkpt lat="45.20692" lon="6.17516">
        <ele>2399.775390625</ele>
        <time>2015-05-17T06:30:55Z</time>
      </trkpt>
      <trkpt lat="45.20695" lon="6.17511">
        <ele>2399.509765625</ele>
        <time>2015-05-17T06:31:02Z</time>
      </trkpt>
      <trkpt lat="45.20697" lon="6.17506">
        <ele>2399.1364746094</ele>
        <time>2015-05-17T06:31:06Z</time>
      </trkpt>
      <trkpt lat="45.20702" lon="6.17505">
        <ele>2400.3823242188</ele>
        <time>2015-05-17T06:31:18Z</time>
      </trkpt>
      <trkpt lat="45.20703" lon="6.17497">
        <ele>2399.1704101562</ele>
        <time>2015-05-17T06:31:31Z</time>
      </trkpt>
      <trkpt lat="45.20705" lon="6.17496">
        <ele>2399.4880371094</ele>
        <time>2015-05-17T06:31:34Z</time>
      </trkpt>
      <trkpt lat="45.20711" lon="6.17492">
        <ele>2401.1098632812</ele>
        <time>2015-05-17T06:31:46Z</time>
      </trkpt>
      <trkpt lat="45.20713" lon="6.17491">
        <ele>2401.4328613281</ele>
        <time>2015-05-17T06:31:50Z</time>
      </trkpt>
      <trkpt lat="45.20719" lon="6.17481">
        <ele>2402.001953125</ele>
        <time>2015-05-17T06:31:54Z</time>
      </trkpt>
      <trkpt lat="45.20721" lon="6.17473">
        <ele>2401.4282226562</ele>
        <time>2015-05-17T06:31:56Z</time>
      </trkpt>
      <trkpt lat="45.20729" lon="6.17444">
        <ele>2395.9052734375</ele>
        <time>2015-05-17T06:32:02Z</time>
      </trkpt>
      <trkpt lat="45.20728" lon="6.17424">
        <ele>2389.8298339844</ele>
        <time>2015-05-17T06:32:06Z</time>
      </trkpt>
      <trkpt lat="45.20726" lon="6.17384">
        <ele>2378.5427246094</ele>
        <time>2015-05-17T06:32:12Z</time>
      </trkpt>
      <trkpt lat="45.20705" lon="6.17372">
        <ele>2374.4326171875</ele>
        <time>2015-05-17T06:32:16Z</time>
      </trkpt>
      <trkpt lat="45.20683" lon="6.17369">
        <ele>2371.76171875</ele>
        <time>2015-05-17T06:32:20Z</time>
      </trkpt>
      <trkpt lat="45.2068" lon="6.17366">
        <ele>2371.2778320312</ele>
        <time>2015-05-17T06:32:24Z</time>
      </trkpt>
      <trkpt lat="45.20681" lon="6.17364">
        <ele>2371.2661132812</ele>
        <time>2015-05-17T06:32:26Z</time>
      </trkpt>
      <trkpt lat="45.20682" lon="6.17361">
        <ele>2371.1293945312</ele>
        <time>2015-05-17T06:32:28Z</time>
      </trkpt>
      <trkpt lat="45.20692" lon="6.17354">
        <ele>2371.3715820312</ele>
        <time>2015-05-17T06:32:40Z</time>
      </trkpt>
      <trkpt lat="45.20682" lon="6.17348">
        <ele>2370.5771484375</ele>
        <time>2015-05-17T06:32:58Z</time>
      </trkpt>
      <trkpt lat="45.20669" lon="6.17341">
        <ele>2370.0517578125</ele>
        <time>2015-05-17T06:33:02Z</time>
      </trkpt>
      <trkpt lat="45.20662" lon="6.17343">
        <ele>2370</ele>
        <time>2015-05-17T06:33:13Z</time>
      </trkpt>
      <trkpt lat="45.20666" lon="6.17338">
        <ele>2370</ele>
        <time>2015-05-17T06:33:26Z</time>
      </trkpt>
      <trkpt lat="45.20662" lon="6.17337">
        <ele>2370</ele>
        <time>2015-05-17T06:33:34Z</time>
      </trkpt>
      <trkpt lat="45.20647" lon="6.1732">
        <ele>2369.5307617188</ele>
        <time>2015-05-17T06:33:38Z</time>
      </trkpt>
      <trkpt lat="45.20618" lon="6.17326">
        <ele>2369.7248535156</ele>
        <time>2015-05-17T06:34:08Z</time>
      </trkpt>
      <trkpt lat="45.20616" lon="6.17323">
        <ele>2369.6166992188</ele>
        <time>2015-05-17T06:34:14Z</time>
      </trkpt>
      <trkpt lat="45.20582" lon="6.17323">
        <ele>2369.6354980469</ele>
        <time>2015-05-17T06:35:02Z</time>
      </trkpt>
      <trkpt lat="45.20543" lon="6.17307">
        <ele>2369.044921875</ele>
        <time>2015-05-17T06:35:41Z</time>
      </trkpt>
      <trkpt lat="45.2052" lon="6.17286">
        <ele>2369.6931152344</ele>
        <time>2015-05-17T06:36:09Z</time>
      </trkpt>
      <trkpt lat="45.20506" lon="6.17274">
        <ele>2370.263671875</ele>
        <time>2015-05-17T06:36:27Z</time>
      </trkpt>
      <trkpt lat="45.20504" lon="6.17273">
        <ele>2370.3298339844</ele>
        <time>2015-05-17T06:36:29Z</time>
      </trkpt>
      <trkpt lat="45.20462" lon="6.1725">
        <ele>2377.7448730469</ele>
        <time>2015-05-17T06:37:19Z</time>
      </trkpt>
      <trkpt lat="45.20459" lon="6.17247">
        <ele>2378.0505371094</ele>
        <time>2015-05-17T06:37:23Z</time>
      </trkpt>
      <trkpt lat="45.20414" lon="6.17216">
        <ele>2380.6950683594</ele>
        <time>2015-05-17T06:38:29Z</time>
      </trkpt>
      <trkpt lat="45.20409" lon="6.17213">
        <ele>2381.0524902344</ele>
        <time>2015-05-17T06:38:35Z</time>
      </trkpt>
      <trkpt lat="45.2039" lon="6.17196">
        <ele>2383.7019042969</ele>
        <time>2015-05-17T06:39:01Z</time>
      </trkpt>
      <trkpt lat="45.20367" lon="6.17177">
        <ele>2390.3041992188</ele>
        <time>2015-05-17T06:39:50Z</time>
      </trkpt>
      <trkpt lat="45.20356" lon="6.17174">
        <ele>2392.7880859375</ele>
        <time>2015-05-17T06:40:00Z</time>
      </trkpt>
      <trkpt lat="45.20354" lon="6.17163">
        <ele>2394.9428710938</ele>
        <time>2015-05-17T06:40:13Z</time>
      </trkpt>
      <trkpt lat="45.20362" lon="6.17106">
        <ele>2402.9865722656</ele>
        <time>2015-05-17T06:41:43Z</time>
      </trkpt>
      <trkpt lat="45.20361" lon="6.17103">
        <ele>2403.7075195312</ele>
        <time>2015-05-17T06:41:47Z</time>
      </trkpt>
      <trkpt lat="45.20359" lon="6.17098">
        <ele>2405.3203125</ele>
        <time>2015-05-17T06:41:59Z</time>
      </trkpt>
      <trkpt lat="45.20348" lon="6.1709">
        <ele>2409.9345703125</ele>
        <time>2015-05-17T06:42:29Z</time>
      </trkpt>
      <trkpt lat="45.20346" lon="6.17088">
        <ele>2410.8820800781</ele>
        <time>2015-05-17T06:42:35Z</time>
      </trkpt>
      <trkpt lat="45.20337" lon="6.17086">
        <ele>2413.6286621094</ele>
        <time>2015-05-17T06:42:56Z</time>
      </trkpt>
      <trkpt lat="45.2029" lon="6.17085">
        <ele>2423.4753417969</ele>
        <time>2015-05-17T06:43:01Z</time>
      </trkpt>
      <trkpt lat="45.2028" lon="6.17081">
        <ele>2425.01171875</ele>
        <time>2015-05-17T06:43:29Z</time>
      </trkpt>
      <trkpt lat="45.20276" lon="6.1708">
        <ele>2425.6118164062</ele>
        <time>2015-05-17T06:43:38Z</time>
      </trkpt>
      <trkpt lat="45.20274" lon="6.17079">
        <ele>2426.1936035156</ele>
        <time>2015-05-17T06:43:44Z</time>
      </trkpt>
      <trkpt lat="45.20267" lon="6.17075">
        <ele>2428.1525878906</ele>
        <time>2015-05-17T06:43:48Z</time>
      </trkpt>
      <trkpt lat="45.2025" lon="6.17065">
        <ele>2433.3767089844</ele>
        <time>2015-05-17T06:44:31Z</time>
      </trkpt>
      <trkpt lat="45.20246" lon="6.17061">
        <ele>2434.3974609375</ele>
        <time>2015-05-17T06:44:43Z</time>
      </trkpt>
      <trkpt lat="45.20215" lon="6.1703">
        <ele>2441.5690917969</ele>
        <time>2015-05-17T06:45:57Z</time>
      </trkpt>
      <trkpt lat="45.2021" lon="6.17029">
        <ele>2442.1169433594</ele>
        <time>2015-05-17T06:46:02Z</time>
      </trkpt>
      <trkpt lat="45.20207" lon="6.17035">
        <ele>2441.7614746094</ele>
        <time>2015-05-17T06:46:07Z</time>
      </trkpt>
      <trkpt lat="45.20201" lon="6.17024">
        <ele>2443.5942382812</ele>
        <time>2015-05-17T06:46:15Z</time>
      </trkpt>
      <trkpt lat="45.202" lon="6.17023">
        <ele>2443.8427734375</ele>
        <time>2015-05-17T06:46:18Z</time>
      </trkpt>
      <trkpt lat="45.20191" lon="6.17016">
        <ele>2445.8151855469</ele>
        <time>2015-05-17T06:46:36Z</time>
      </trkpt>
      <trkpt lat="45.20177" lon="6.17005">
        <ele>2449.5375976562</ele>
        <time>2015-05-17T06:47:02Z</time>
      </trkpt>
      <trkpt lat="45.20162" lon="6.16994">
        <ele>2454.1540527344</ele>
        <time>2015-05-17T06:47:28Z</time>
      </trkpt>
      <trkpt lat="45.20143" lon="6.16983">
        <ele>2461.0461425781</ele>
        <time>2015-05-17T06:48:02Z</time>
      </trkpt>
      <trkpt lat="45.20131" lon="6.16974">
        <ele>2464.1916503906</ele>
        <time>2015-05-17T06:48:25Z</time>
      </trkpt>
      <trkpt lat="45.20121" lon="6.16968">
        <ele>2465.8530273438</ele>
        <time>2015-05-17T06:48:43Z</time>
      </trkpt>
      <trkpt lat="45.201" lon="6.16959">
        <ele>2468.0249023438</ele>
        <time>2015-05-17T06:49:25Z</time>
      </trkpt>
      <trkpt lat="45.20086" lon="6.16953">
        <ele>2469.4382324219</ele>
        <time>2015-05-17T06:49:33Z</time>
      </trkpt>
      <trkpt lat="45.20067" lon="6.16927">
        <ele>2474.6140136719</ele>
        <time>2015-05-17T06:50:25Z</time>
      </trkpt>
      <trkpt lat="45.20044" lon="6.16878">
        <ele>2483.4731445312</ele>
        <time>2015-05-17T06:51:58Z</time>
      </trkpt>
      <trkpt lat="45.20037" lon="6.16858">
        <ele>2485.8937988281</ele>
        <time>2015-05-17T06:52:26Z</time>
      </trkpt>
      <trkpt lat="45.20009" lon="6.16842">
        <ele>2488.5988769531</ele>
        <time>2015-05-17T06:53:11Z</time>
      </trkpt>
      <trkpt lat="45.19996" lon="6.16834">
        <ele>2490.6887207031</ele>
        <time>2015-05-17T06:53:34Z</time>
      </trkpt>
      <trkpt lat="45.19992" lon="6.16831">
        <ele>2491.6931152344</ele>
        <time>2015-05-17T06:53:40Z</time>
      </trkpt>
      <trkpt lat="45.19981" lon="6.16821">
        <ele>2495.1538085938</ele>
        <time>2015-05-17T06:54:00Z</time>
      </trkpt>
      <trkpt lat="45.19974" lon="6.16817">
        <ele>2497.1176757812</ele>
        <time>2015-05-17T06:54:12Z</time>
      </trkpt>
      <trkpt lat="45.19965" lon="6.16813">
        <ele>2500.5705566406</ele>
        <time>2015-05-17T06:54:29Z</time>
      </trkpt>
      <trkpt lat="45.19944" lon="6.16811">
        <ele>2508.1235351562</ele>
        <time>2015-05-17T06:55:10Z</time>
      </trkpt>
      <trkpt lat="45.19938" lon="6.16809">
        <ele>2510.1286621094</ele>
        <time>2015-05-17T06:55:23Z</time>
      </trkpt>
      <trkpt lat="45.19924" lon="6.16812">
        <ele>2512.9868164062</ele>
        <time>2015-05-17T06:55:49Z</time>
      </trkpt>
      <trkpt lat="45.19922" lon="6.16812">
        <ele>2513.4948730469</ele>
        <time>2015-05-17T06:55:55Z</time>
      </trkpt>
      <trkpt lat="45.19911" lon="6.16811">
        <ele>2517.9311523438</ele>
        <time>2015-05-17T06:56:19Z</time>
      </trkpt>
      <trkpt lat="45.19907" lon="6.16811">
        <ele>2519.9797363281</ele>
        <time>2015-05-17T06:56:28Z</time>
      </trkpt>
      <trkpt lat="45.19896" lon="6.16815">
        <ele>2524.49609375</ele>
        <time>2015-05-17T06:56:52Z</time>
      </trkpt>
      <trkpt lat="45.19893" lon="6.16817">
        <ele>2525.7209472656</ele>
        <time>2015-05-17T06:56:56Z</time>
      </trkpt>
      <trkpt lat="45.19891" lon="6.16818">
        <ele>2526.1687011719</ele>
        <time>2015-05-17T06:56:59Z</time>
      </trkpt>
      <trkpt lat="45.19887" lon="6.16818">
        <ele>2527.8049316406</ele>
        <time>2015-05-17T06:57:12Z</time>
      </trkpt>
      <trkpt lat="45.19881" lon="6.16819">
        <ele>2529.6242675781</ele>
        <time>2015-05-17T06:57:15Z</time>
      </trkpt>
      <trkpt lat="45.1987" lon="6.16819">
        <ele>2533.275390625</ele>
        <time>2015-05-17T06:57:39Z</time>
      </trkpt>
      <trkpt lat="45.19865" lon="6.16822">
        <ele>2534.3337402344</ele>
        <time>2015-05-17T06:57:52Z</time>
      </trkpt>
      <trkpt lat="45.19839" lon="6.16846">
        <ele>2537.2719726562</ele>
        <time>2015-05-17T06:58:47Z</time>
      </trkpt>
      <trkpt lat="45.19831" lon="6.16848">
        <ele>2538.8857421875</ele>
        <time>2015-05-17T06:58:55Z</time>
      </trkpt>
      <trkpt lat="45.19821" lon="6.1678">
        <ele>2548.0290527344</ele>
        <time>2015-05-17T07:00:51Z</time>
      </trkpt>
      <trkpt lat="45.1982" lon="6.16777">
        <ele>2548.4104003906</ele>
        <time>2015-05-17T07:00:57Z</time>
      </trkpt>
      <trkpt lat="45.19805" lon="6.16733">
        <ele>2557.58984375</ele>
        <time>2015-05-17T07:02:12Z</time>
      </trkpt>
      <trkpt lat="45.19802" lon="6.16718">
        <ele>2559.7185058594</ele>
        <time>2015-05-17T07:02:35Z</time>
      </trkpt>
      <trkpt lat="45.19799" lon="6.16704">
        <ele>2560.8122558594</ele>
        <time>2015-05-17T07:02:56Z</time>
      </trkpt>
      <trkpt lat="45.19794" lon="6.1668">
        <ele>2561.2236328125</ele>
        <time>2015-05-17T07:03:33Z</time>
      </trkpt>
      <trkpt lat="45.1979" lon="6.16663">
        <ele>2561.4372558594</ele>
        <time>2015-05-17T07:04:02Z</time>
      </trkpt>
      <trkpt lat="45.19757" lon="6.16655">
        <ele>2567.7941894531</ele>
        <time>2015-05-17T07:04:05Z</time>
      </trkpt>
      <trkpt lat="45.19747" lon="6.16651">
        <ele>2569.9272460938</ele>
        <time>2015-05-17T07:04:32Z</time>
      </trkpt>
      <trkpt lat="45.19744" lon="6.16649">
        <ele>2570.6962890625</ele>
        <time>2015-05-17T07:04:38Z</time>
      </trkpt>
      <trkpt lat="45.19733" lon="6.1664">
        <ele>2573.9921875</ele>
        <time>2015-05-17T07:05:12Z</time>
      </trkpt>
      <trkpt lat="45.19724" lon="6.16632">
        <ele>2576.8090820312</ele>
        <time>2015-05-17T07:05:19Z</time>
      </trkpt>
      <trkpt lat="45.19708" lon="6.16614">
        <ele>2580.9887695312</ele>
        <time>2015-05-17T07:06:02Z</time>
      </trkpt>
      <trkpt lat="45.19704" lon="6.16615">
        <ele>2581.7768554688</ele>
        <time>2015-05-17T07:06:12Z</time>
      </trkpt>
      <trkpt lat="45.19695" lon="6.16624">
        <ele>2583.501953125</ele>
        <time>2015-05-17T07:06:22Z</time>
      </trkpt>
      <trkpt lat="45.19687" lon="6.16627">
        <ele>2585.1345214844</ele>
        <time>2015-05-17T07:06:38Z</time>
      </trkpt>
      <trkpt lat="45.19674" lon="6.16627">
        <ele>2587.9548339844</ele>
        <time>2015-05-17T07:07:07Z</time>
      </trkpt>
      <trkpt lat="45.19662" lon="6.16625">
        <ele>2589.9025878906</ele>
        <time>2015-05-17T07:07:18Z</time>
      </trkpt>
      <trkpt lat="45.19639" lon="6.1663">
        <ele>2591.6284179688</ele>
        <time>2015-05-17T07:08:08Z</time>
      </trkpt>
      <trkpt lat="45.19632" lon="6.16629">
        <ele>2592.7138671875</ele>
        <time>2015-05-17T07:08:22Z</time>
      </trkpt>
      <trkpt lat="45.1962" lon="6.16628">
        <ele>2594.7517089844</ele>
        <time>2015-05-17T07:08:49Z</time>
      </trkpt>
      <trkpt lat="45.19611" lon="6.16624">
        <ele>2596.6013183594</ele>
        <time>2015-05-17T07:09:10Z</time>
      </trkpt>
      <trkpt lat="45.19586" lon="6.16607">
        <ele>2602.2783203125</ele>
        <time>2015-05-17T07:10:08Z</time>
      </trkpt>
      <trkpt lat="45.19567" lon="6.16594">
        <ele>2607.3356933594</ele>
        <time>2015-05-17T07:10:58Z</time>
      </trkpt>
      <trkpt lat="45.19559" lon="6.16589">
        <ele>2608.9284667969</ele>
        <time>2015-05-17T07:11:18Z</time>
      </trkpt>
      <trkpt lat="45.19556" lon="6.16588">
        <ele>2609.6318359375</ele>
        <time>2015-05-17T07:11:27Z</time>
      </trkpt>
      <trkpt lat="45.19537" lon="6.16576">
        <ele>2615.5390625</ele>
        <time>2015-05-17T07:11:31Z</time>
      </trkpt>
      <trkpt lat="45.19533" lon="6.16573">
        <ele>2616.8542480469</ele>
        <time>2015-05-17T07:11:43Z</time>
      </trkpt>
      <trkpt lat="45.19532" lon="6.16572">
        <ele>2617.2407226562</ele>
        <time>2015-05-17T07:11:48Z</time>
      </trkpt>
      <trkpt lat="45.19464" lon="6.1651">
        <ele>2635.0546875</ele>
        <time>2015-05-17T07:11:55Z</time>
      </trkpt>
      <trkpt lat="45.19462" lon="6.16507">
        <ele>2635.970703125</ele>
        <time>2015-05-17T07:12:07Z</time>
      </trkpt>
      <trkpt lat="45.19426" lon="6.16467">
        <ele>2651.9743652344</ele>
        <time>2015-05-17T07:12:10Z</time>
      </trkpt>
      <trkpt lat="45.1942" lon="6.16464">
        <ele>2653.654296875</ele>
        <time>2015-05-17T07:12:23Z</time>
      </trkpt>
      <trkpt lat="45.19416" lon="6.1646">
        <ele>2655.0451660156</ele>
        <time>2015-05-17T07:12:37Z</time>
      </trkpt>
      <trkpt lat="45.19408" lon="6.16455">
        <ele>2656.5876464844</ele>
        <time>2015-05-17T07:12:58Z</time>
      </trkpt>
      <trkpt lat="45.19406" lon="6.16454">
        <ele>2657.0373535156</ele>
        <time>2015-05-17T07:13:05Z</time>
      </trkpt>
      <trkpt lat="45.19399" lon="6.16449">
        <ele>2658.2966308594</ele>
        <time>2015-05-17T07:13:25Z</time>
      </trkpt>
      <trkpt lat="45.19332" lon="6.16461">
        <ele>2674.6130371094</ele>
        <time>2015-05-17T07:13:34Z</time>
      </trkpt>
      <trkpt lat="45.19296" lon="6.16448">
        <ele>2683.8781738281</ele>
        <time>2015-05-17T07:13:37Z</time>
      </trkpt>
      <trkpt lat="45.19289" lon="6.16444">
        <ele>2685.9653320312</ele>
        <time>2015-05-17T07:13:51Z</time>
      </trkpt>
      <trkpt lat="45.19284" lon="6.16442">
        <ele>2687.8862304688</ele>
        <time>2015-05-17T07:14:03Z</time>
      </trkpt>
      <trkpt lat="45.19283" lon="6.16441">
        <ele>2688.4497070312</ele>
        <time>2015-05-17T07:14:06Z</time>
      </trkpt>
      <trkpt lat="45.19277" lon="6.16442">
        <ele>2690.2844238281</ele>
        <time>2015-05-17T07:14:18Z</time>
      </trkpt>
      <trkpt lat="45.19255" lon="6.16447">
        <ele>2697.9138183594</ele>
        <time>2015-05-17T07:14:23Z</time>
      </trkpt>
      <trkpt lat="45.19252" lon="6.16446">
        <ele>2699.1223144531</ele>
        <time>2015-05-17T07:14:32Z</time>
      </trkpt>
      <trkpt lat="45.1925" lon="6.16444">
        <ele>2699.1450195312</ele>
        <time>2015-05-17T07:14:40Z</time>
      </trkpt>
      <trkpt lat="45.19239" lon="6.16437">
        <ele>2703.7282714844</ele>
        <time>2015-05-17T07:14:49Z</time>
      </trkpt>
      <trkpt lat="45.19238" lon="6.16436">
        <ele>2704.1579589844</ele>
        <time>2015-05-17T07:14:52Z</time>
      </trkpt>
      <trkpt lat="45.19226" lon="6.16433">
        <ele>2708.513671875</ele>
        <time>2015-05-17T07:15:18Z</time>
      </trkpt>
      <trkpt lat="45.19221" lon="6.16432">
        <ele>2710.1372070312</ele>
        <time>2015-05-17T07:15:30Z</time>
      </trkpt>
      <trkpt lat="45.19211" lon="6.16414">
        <ele>2712.51953125</ele>
        <time>2015-05-17T07:16:03Z</time>
      </trkpt>
      <trkpt lat="45.19204" lon="6.16405">
        <ele>2715.7905273438</ele>
        <time>2015-05-17T07:16:26Z</time>
      </trkpt>
      <trkpt lat="45.19202" lon="6.16405">
        <ele>2716.3359375</ele>
        <time>2015-05-17T07:16:29Z</time>
      </trkpt>
      <trkpt lat="45.19183" lon="6.16393">
        <ele>2722.8762207031</ele>
        <time>2015-05-17T07:16:41Z</time>
      </trkpt>
      <trkpt lat="45.19162" lon="6.16387">
        <ele>2730.0505371094</ele>
        <time>2015-05-17T07:17:19Z</time>
      </trkpt>
      <trkpt lat="45.19148" lon="6.16387">
        <ele>2735.4152832031</ele>
        <time>2015-05-17T07:17:48Z</time>
      </trkpt>
      <trkpt lat="45.19146" lon="6.16386">
        <ele>2736.5080566406</ele>
        <time>2015-05-17T07:17:53Z</time>
      </trkpt>
      <trkpt lat="45.19132" lon="6.16381">
        <ele>2741.6037597656</ele>
        <time>2015-05-17T07:18:19Z</time>
      </trkpt>
      <trkpt lat="45.19115" lon="6.16376">
        <ele>2747.5129394531</ele>
        <time>2015-05-17T07:18:25Z</time>
      </trkpt>
      <trkpt lat="45.19107" lon="6.16373">
        <ele>2751.0104980469</ele>
        <time>2015-05-17T07:18:43Z</time>
      </trkpt>
      <trkpt lat="45.19104" lon="6.16375">
        <ele>2752.2680664062</ele>
        <time>2015-05-17T07:18:50Z</time>
      </trkpt>
      <trkpt lat="45.19097" lon="6.16381">
        <ele>2755.2670898438</ele>
        <time>2015-05-17T07:18:59Z</time>
      </trkpt>
      <trkpt lat="45.19093" lon="6.16387">
        <ele>2756.2250976562</ele>
        <time>2015-05-17T07:19:13Z</time>
      </trkpt>
      <trkpt lat="45.19088" lon="6.16378">
        <ele>2759.5678710938</ele>
        <time>2015-05-17T07:19:19Z</time>
      </trkpt>
      <trkpt lat="45.19081" lon="6.16358">
        <ele>2766.1569824219</ele>
        <time>2015-05-17T07:19:50Z</time>
      </trkpt>
      <trkpt lat="45.19072" lon="6.16362">
        <ele>2767.9196777344</ele>
        <time>2015-05-17T07:20:08Z</time>
      </trkpt>
      <trkpt lat="45.1906" lon="6.16358">
        <ele>2772.2282714844</ele>
        <time>2015-05-17T07:20:34Z</time>
      </trkpt>
      <trkpt lat="45.19049" lon="6.16358">
        <ele>2776.052734375</ele>
        <time>2015-05-17T07:20:53Z</time>
      </trkpt>
      <trkpt lat="45.19037" lon="6.16348">
        <ele>2782.310546875</ele>
        <time>2015-05-17T07:21:19Z</time>
      </trkpt>
      <trkpt lat="45.19034" lon="6.16346">
        <ele>2783.9165039062</ele>
        <time>2015-05-17T07:21:25Z</time>
      </trkpt>
      <trkpt lat="45.19027" lon="6.16351">
        <ele>2785.6062011719</ele>
        <time>2015-05-17T07:21:40Z</time>
      </trkpt>
      <trkpt lat="45.19023" lon="6.16355">
        <ele>2785.5473632812</ele>
        <time>2015-05-17T07:21:46Z</time>
      </trkpt>
      <trkpt lat="45.19016" lon="6.1638">
        <ele>2782.9318847656</ele>
        <time>2015-05-17T07:22:10Z</time>
      </trkpt>
      <trkpt lat="45.19009" lon="6.16393">
        <ele>2783.1887207031</ele>
        <time>2015-05-17T07:22:26Z</time>
      </trkpt>
      <trkpt lat="45.19008" lon="6.16394">
        <ele>2783.2087402344</ele>
        <time>2015-05-17T07:22:29Z</time>
      </trkpt>
      <trkpt lat="45.18999" lon="6.16402">
        <ele>2785.28125</ele>
        <time>2015-05-17T07:22:51Z</time>
      </trkpt>
      <trkpt lat="45.18994" lon="6.16404">
        <ele>2786.2133789062</ele>
        <time>2015-05-17T07:22:59Z</time>
      </trkpt>
      <trkpt lat="45.18989" lon="6.16404">
        <ele>2787.3369140625</ele>
        <time>2015-05-17T07:23:09Z</time>
      </trkpt>
      <trkpt lat="45.18964" lon="6.16377">
        <ele>2797.5524902344</ele>
        <time>2015-05-17T07:24:09Z</time>
      </trkpt>
      <trkpt lat="45.18963" lon="6.16376">
        <ele>2797.7292480469</ele>
        <time>2015-05-17T07:24:11Z</time>
      </trkpt>
      <trkpt lat="45.18956" lon="6.16377">
        <ele>2798.8317871094</ele>
        <time>2015-05-17T07:24:20Z</time>
      </trkpt>
      <trkpt lat="45.18953" lon="6.16375">
        <ele>2799.6264648438</ele>
        <time>2015-05-17T07:24:26Z</time>
      </trkpt>
      <trkpt lat="45.18945" lon="6.16353">
        <ele>2805.8068847656</ele>
        <time>2015-05-17T07:24:58Z</time>
      </trkpt>
      <trkpt lat="45.18929" lon="6.16345">
        <ele>2810.7834472656</ele>
        <time>2015-05-17T07:25:30Z</time>
      </trkpt>
      <trkpt lat="45.18913" lon="6.16327">
        <ele>2818.1140136719</ele>
        <time>2015-05-17T07:26:08Z</time>
      </trkpt>
      <trkpt lat="45.18908" lon="6.1632">
        <ele>2819.3120117188</ele>
        <time>2015-05-17T07:26:20Z</time>
      </trkpt>
      <trkpt lat="45.18898" lon="6.16291">
        <ele>2826.6184082031</ele>
        <time>2015-05-17T07:26:54Z</time>
      </trkpt>
      <trkpt lat="45.18897" lon="6.1629">
        <ele>2826.8942871094</ele>
        <time>2015-05-17T07:26:57Z</time>
      </trkpt>
      <trkpt lat="45.18888" lon="6.1628">
        <ele>2829.0727539062</ele>
        <time>2015-05-17T07:27:06Z</time>
      </trkpt>
      <trkpt lat="45.1888" lon="6.16271">
        <ele>2831.1298828125</ele>
        <time>2015-05-17T07:27:31Z</time>
      </trkpt>
      <trkpt lat="45.18882" lon="6.16263">
        <ele>2834.2136230469</ele>
        <time>2015-05-17T07:27:35Z</time>
      </trkpt>
      <trkpt lat="45.18889" lon="6.16261">
        <ele>2836.0334472656</ele>
        <time>2015-05-17T07:27:45Z</time>
      </trkpt>
      <trkpt lat="45.18906" lon="6.16251">
        <ele>2838.4755859375</ele>
        <time>2015-05-17T07:28:22Z</time>
      </trkpt>
      <trkpt lat="45.18883" lon="6.16244">
        <ele>2841.92578125</ele>
        <time>2015-05-17T07:28:27Z</time>
      </trkpt>
      <trkpt lat="45.18874" lon="6.16242">
        <ele>2842.33203125</ele>
        <time>2015-05-17T07:28:43Z</time>
      </trkpt>
      <trkpt lat="45.18869" lon="6.1624">
        <ele>2842.8234863281</ele>
        <time>2015-05-17T07:28:55Z</time>
      </trkpt>
      <trkpt lat="45.18877" lon="6.16235">
        <ele>2845.7805175781</ele>
        <time>2015-05-17T07:29:02Z</time>
      </trkpt>
      <trkpt lat="45.18879" lon="6.16233">
        <ele>2846.8776855469</ele>
        <time>2015-05-17T07:29:10Z</time>
      </trkpt>
      <trkpt lat="45.18866" lon="6.16211">
        <ele>2856.2553710938</ele>
        <time>2015-05-17T07:29:25Z</time>
      </trkpt>
      <trkpt lat="45.18869" lon="6.1621">
        <ele>2856.6889648438</ele>
        <time>2015-05-17T07:29:32Z</time>
      </trkpt>
      <trkpt lat="45.18873" lon="6.16209">
        <ele>2857.5439453125</ele>
        <time>2015-05-17T07:29:42Z</time>
      </trkpt>
      <trkpt lat="45.18876" lon="6.16209">
        <ele>2857.7316894531</ele>
        <time>2015-05-17T07:29:49Z</time>
      </trkpt>
      <trkpt lat="45.18868" lon="6.16201">
        <ele>2860.560546875</ele>
        <time>2015-05-17T07:29:54Z</time>
      </trkpt>
      <trkpt lat="45.18882" lon="6.16214">
        <ele>2855.8464355469</ele>
        <time>2015-05-17T07:30:05Z</time>
      </trkpt>
      <trkpt lat="45.18885" lon="6.16219">
        <ele>2853.4382324219</ele>
        <time>2015-05-17T07:30:07Z</time>
      </trkpt>
      <trkpt lat="45.18884" lon="6.1623">
        <ele>2848.2055664062</ele>
        <time>2015-05-17T07:30:11Z</time>
      </trkpt>
      <trkpt lat="45.1889" lon="6.16234">
        <ele>2846.7700195312</ele>
        <time>2015-05-17T07:30:13Z</time>
      </trkpt>
      <trkpt lat="45.18891" lon="6.16239">
        <ele>2844.4560546875</ele>
        <time>2015-05-17T07:30:15Z</time>
      </trkpt>
      <trkpt lat="45.18889" lon="6.16253">
        <ele>2838.91796875</ele>
        <time>2015-05-17T07:30:19Z</time>
      </trkpt>
      <trkpt lat="45.18887" lon="6.16279">
        <ele>2829.3791503906</ele>
        <time>2015-05-17T07:30:25Z</time>
      </trkpt>
      <trkpt lat="45.18874" lon="6.16289">
        <ele>2823.5151367188</ele>
        <time>2015-05-17T07:30:29Z</time>
      </trkpt>
      <trkpt lat="45.18871" lon="6.1629">
        <ele>2822.41015625</ele>
        <time>2015-05-17T07:30:31Z</time>
      </trkpt>
      <trkpt lat="45.18869" lon="6.1629">
        <ele>2821.8034667969</ele>
        <time>2015-05-17T07:30:34Z</time>
      </trkpt>
      <trkpt lat="45.18866" lon="6.16292">
        <ele>2820.7077636719</ele>
        <time>2015-05-17T07:30:41Z</time>
      </trkpt>
      <trkpt lat="45.18874" lon="6.16299">
        <ele>2819.9719238281</ele>
        <time>2015-05-17T07:30:47Z</time>
      </trkpt>
      <trkpt lat="45.18882" lon="6.16301">
        <ele>2821.5461425781</ele>
        <time>2015-05-17T07:30:52Z</time>
      </trkpt>
      <trkpt lat="45.189" lon="6.16305">
        <ele>2822.8903808594</ele>
        <time>2015-05-17T07:30:57Z</time>
      </trkpt>
      <trkpt lat="45.18913" lon="6.16314">
        <ele>2821.4345703125</ele>
        <time>2015-05-17T07:31:00Z</time>
      </trkpt>
      <trkpt lat="45.18926" lon="6.16334">
        <ele>2814.7956542969</ele>
        <time>2015-05-17T07:31:04Z</time>
      </trkpt>
      <trkpt lat="45.18938" lon="6.1634">
        <ele>2810.3959960938</ele>
        <time>2015-05-17T07:31:07Z</time>
      </trkpt>
      <trkpt lat="45.18948" lon="6.16334">
        <ele>2810.1928710938</ele>
        <time>2015-05-17T07:31:10Z</time>
      </trkpt>
      <trkpt lat="45.1897" lon="6.1634">
        <ele>2804.6274414062</ele>
        <time>2015-05-17T07:31:15Z</time>
      </trkpt>
      <trkpt lat="45.18978" lon="6.16346">
        <ele>2801.0107421875</ele>
        <time>2015-05-17T07:31:17Z</time>
      </trkpt>
      <trkpt lat="45.18988" lon="6.16362">
        <ele>2794.4892578125</ele>
        <time>2015-05-17T07:31:20Z</time>
      </trkpt>
      <trkpt lat="45.18995" lon="6.16371">
        <ele>2791.1105957031</ele>
        <time>2015-05-17T07:31:22Z</time>
      </trkpt>
      <trkpt lat="45.18998" lon="6.16389">
        <ele>2787.4323730469</ele>
        <time>2015-05-17T07:31:25Z</time>
      </trkpt>
      <trkpt lat="45.18999" lon="6.16397">
        <ele>2785.9802246094</ele>
        <time>2015-05-17T07:31:27Z</time>
      </trkpt>
      <trkpt lat="45.19012" lon="6.16399">
        <ele>2780.8522949219</ele>
        <time>2015-05-17T07:31:32Z</time>
      </trkpt>
      <trkpt lat="45.19028" lon="6.16412">
        <ele>2772.5808105469</ele>
        <time>2015-05-17T07:31:35Z</time>
      </trkpt>
      <trkpt lat="45.19039" lon="6.16427">
        <ele>2767.064453125</ele>
        <time>2015-05-17T07:31:37Z</time>
      </trkpt>
      <trkpt lat="45.1906" lon="6.16478">
        <ele>2754.5158691406</ele>
        <time>2015-05-17T07:31:42Z</time>
      </trkpt>
      <trkpt lat="45.19072" lon="6.16492">
        <ele>2750.6323242188</ele>
        <time>2015-05-17T07:31:45Z</time>
      </trkpt>
      <trkpt lat="45.19081" lon="6.16511">
        <ele>2746.0031738281</ele>
        <time>2015-05-17T07:31:51Z</time>
      </trkpt>
      <trkpt lat="45.19094" lon="6.16538">
        <ele>2739.1220703125</ele>
        <time>2015-05-17T07:31:54Z</time>
      </trkpt>
      <trkpt lat="45.19134" lon="6.16586">
        <ele>2727.103515625</ele>
        <time>2015-05-17T07:32:00Z</time>
      </trkpt>
      <trkpt lat="45.19148" lon="6.16597">
        <ele>2723.7404785156</ele>
        <time>2015-05-17T07:32:02Z</time>
      </trkpt>
      <trkpt lat="45.19158" lon="6.16601">
        <ele>2721.6806640625</ele>
        <time>2015-05-17T07:32:04Z</time>
      </trkpt>
      <trkpt lat="45.19162" lon="6.16599">
        <ele>2721.3715820312</ele>
        <time>2015-05-17T07:32:08Z</time>
      </trkpt>
      <trkpt lat="45.19173" lon="6.16606">
        <ele>2719.3317871094</ele>
        <time>2015-05-17T07:32:11Z</time>
      </trkpt>
      <trkpt lat="45.19181" lon="6.16616">
        <ele>2717.3334960938</ele>
        <time>2015-05-17T07:32:13Z</time>
      </trkpt>
      <trkpt lat="45.19192" lon="6.16652">
        <ele>2711.2099609375</ele>
        <time>2015-05-17T07:32:18Z</time>
      </trkpt>
      <trkpt lat="45.19202" lon="6.16669">
        <ele>2706.6552734375</ele>
        <time>2015-05-17T07:32:21Z</time>
      </trkpt>
      <trkpt lat="45.19208" lon="6.16667">
        <ele>2705.4536132812</ele>
        <time>2015-05-17T07:32:23Z</time>
      </trkpt>
      <trkpt lat="45.19218" lon="6.16664">
        <ele>2703.5646972656</ele>
        <time>2015-05-17T07:32:30Z</time>
      </trkpt>
      <trkpt lat="45.19228" lon="6.16669">
        <ele>2700.6291503906</ele>
        <time>2015-05-17T07:32:33Z</time>
      </trkpt>
      <trkpt lat="45.19251" lon="6.16698">
        <ele>2692.3642578125</ele>
        <time>2015-05-17T07:32:39Z</time>
      </trkpt>
      <trkpt lat="45.19313" lon="6.16733">
        <ele>2680.3393554688</ele>
        <time>2015-05-17T07:32:51Z</time>
      </trkpt>
      <trkpt lat="45.19317" lon="6.16736">
        <ele>2679.4604492188</ele>
        <time>2015-05-17T07:32:54Z</time>
      </trkpt>
      <trkpt lat="45.19345" lon="6.16747">
        <ele>2673.4423828125</ele>
        <time>2015-05-17T07:33:00Z</time>
      </trkpt>
      <trkpt lat="45.19387" lon="6.16769">
        <ele>2662.0014648438</ele>
        <time>2015-05-17T07:33:07Z</time>
      </trkpt>
      <trkpt lat="45.19404" lon="6.16774">
        <ele>2656.345703125</ele>
        <time>2015-05-17T07:33:10Z</time>
      </trkpt>
      <trkpt lat="45.19413" lon="6.16773">
        <ele>2653.2783203125</ele>
        <time>2015-05-17T07:33:12Z</time>
      </trkpt>
      <trkpt lat="45.19421" lon="6.16775">
        <ele>2650.0102539062</ele>
        <time>2015-05-17T07:33:15Z</time>
      </trkpt>
      <trkpt lat="45.19433" lon="6.16779">
        <ele>2645.03515625</ele>
        <time>2015-05-17T07:33:21Z</time>
      </trkpt>
      <trkpt lat="45.19442" lon="6.16781">
        <ele>2641.1665039062</ele>
        <time>2015-05-17T07:33:24Z</time>
      </trkpt>
      <trkpt lat="45.19461" lon="6.1679">
        <ele>2635.8950195312</ele>
        <time>2015-05-17T07:33:28Z</time>
      </trkpt>
      <trkpt lat="45.19474" lon="6.16792">
        <ele>2632.0886230469</ele>
        <time>2015-05-17T07:33:30Z</time>
      </trkpt>
      <trkpt lat="45.19491" lon="6.16791">
        <ele>2627.8935546875</ele>
        <time>2015-05-17T07:33:32Z</time>
      </trkpt>
      <trkpt lat="45.19521" lon="6.16783">
        <ele>2618.9216308594</ele>
        <time>2015-05-17T07:33:36Z</time>
      </trkpt>
      <trkpt lat="45.19579" lon="6.16765">
        <ele>2604.4155273438</ele>
        <time>2015-05-17T07:33:43Z</time>
      </trkpt>
      <trkpt lat="45.19594" lon="6.16765">
        <ele>2601.4392089844</ele>
        <time>2015-05-17T07:33:45Z</time>
      </trkpt>
      <trkpt lat="45.19619" lon="6.16766">
        <ele>2596.8024902344</ele>
        <time>2015-05-17T07:33:50Z</time>
      </trkpt>
      <trkpt lat="45.19631" lon="6.1677">
        <ele>2595.9580078125</ele>
        <time>2015-05-17T07:33:52Z</time>
      </trkpt>
      <trkpt lat="45.19652" lon="6.16781">
        <ele>2592.1262207031</ele>
        <time>2015-05-17T07:33:55Z</time>
      </trkpt>
      <trkpt lat="45.19714" lon="6.16826">
        <ele>2580.2397460938</ele>
        <time>2015-05-17T07:34:05Z</time>
      </trkpt>
      <trkpt lat="45.19724" lon="6.16832">
        <ele>2577.1721191406</ele>
        <time>2015-05-17T07:34:07Z</time>
      </trkpt>
      <trkpt lat="45.19729" lon="6.16832">
        <ele>2574.5090332031</ele>
        <time>2015-05-17T07:34:12Z</time>
      </trkpt>
      <trkpt lat="45.19738" lon="6.16846">
        <ele>2570.6889648438</ele>
        <time>2015-05-17T07:34:16Z</time>
      </trkpt>
      <trkpt lat="45.1974" lon="6.1685">
        <ele>2569.9099121094</ele>
        <time>2015-05-17T07:34:18Z</time>
      </trkpt>
      <trkpt lat="45.19741" lon="6.16853">
        <ele>2569.4697265625</ele>
        <time>2015-05-17T07:34:20Z</time>
      </trkpt>
      <trkpt lat="45.19743" lon="6.16856">
        <ele>2568.8005371094</ele>
        <time>2015-05-17T07:34:26Z</time>
      </trkpt>
      <trkpt lat="45.19744" lon="6.16859">
        <ele>2568.2944335938</ele>
        <time>2015-05-17T07:34:28Z</time>
      </trkpt>
      <trkpt lat="45.19747" lon="6.16873">
        <ele>2566.5456542969</ele>
        <time>2015-05-17T07:34:34Z</time>
      </trkpt>
      <trkpt lat="45.1975" lon="6.1689">
        <ele>2564.7834472656</ele>
        <time>2015-05-17T07:34:38Z</time>
      </trkpt>
      <trkpt lat="45.19762" lon="6.16903">
        <ele>2557.4489746094</ele>
        <time>2015-05-17T07:34:42Z</time>
      </trkpt>
      <trkpt lat="45.19781" lon="6.16919">
        <ele>2545.9873046875</ele>
        <time>2015-05-17T07:34:46Z</time>
      </trkpt>
      <trkpt lat="45.19791" lon="6.16932">
        <ele>2542.0893554688</ele>
        <time>2015-05-17T07:34:48Z</time>
      </trkpt>
      <trkpt lat="45.19794" lon="6.1695">
        <ele>2539.1193847656</ele>
        <time>2015-05-17T07:34:50Z</time>
      </trkpt>
      <trkpt lat="45.19799" lon="6.16981">
        <ele>2534.0808105469</ele>
        <time>2015-05-17T07:34:54Z</time>
      </trkpt>
      <trkpt lat="45.198" lon="6.16992">
        <ele>2532.3442382812</ele>
        <time>2015-05-17T07:34:56Z</time>
      </trkpt>
      <trkpt lat="45.19801" lon="6.17002">
        <ele>2530.4565429688</ele>
        <time>2015-05-17T07:35:00Z</time>
      </trkpt>
      <trkpt lat="45.19802" lon="6.17005">
        <ele>2529.8967285156</ele>
        <time>2015-05-17T07:35:02Z</time>
      </trkpt>
      <trkpt lat="45.19799" lon="6.17018">
        <ele>2529.4248046875</ele>
        <time>2015-05-17T07:35:10Z</time>
      </trkpt>
      <trkpt lat="45.19799" lon="6.17034">
        <ele>2527.1794433594</ele>
        <time>2015-05-17T07:35:14Z</time>
      </trkpt>
      <trkpt lat="45.19843" lon="6.17051">
        <ele>2507.3151855469</ele>
        <time>2015-05-17T07:35:24Z</time>
      </trkpt>
      <trkpt lat="45.19859" lon="6.17066">
        <ele>2500.3369140625</ele>
        <time>2015-05-17T07:35:28Z</time>
      </trkpt>
      <trkpt lat="45.19863" lon="6.17073">
        <ele>2498.873046875</ele>
        <time>2015-05-17T07:35:30Z</time>
      </trkpt>
      <trkpt lat="45.19867" lon="6.17085">
        <ele>2497.1398925781</ele>
        <time>2015-05-17T07:35:34Z</time>
      </trkpt>
      <trkpt lat="45.19867" lon="6.17085">
        <ele>2497.1398925781</ele>
        <time>2015-05-17T07:35:41Z</time>
      </trkpt>
      <trkpt lat="45.19871" lon="6.17086">
        <ele>2495.3913574219</ele>
        <time>2015-05-17T07:35:43Z</time>
      </trkpt>
      <trkpt lat="45.19881" lon="6.1709">
        <ele>2490.9973144531</ele>
        <time>2015-05-17T07:35:45Z</time>
      </trkpt>
      <trkpt lat="45.19889" lon="6.17097">
        <ele>2488.203125</ele>
        <time>2015-05-17T07:35:47Z</time>
      </trkpt>
      <trkpt lat="45.19907" lon="6.17122">
        <ele>2483.3781738281</ele>
        <time>2015-05-17T07:35:53Z</time>
      </trkpt>
      <trkpt lat="45.19918" lon="6.17127">
        <ele>2479.8098144531</ele>
        <time>2015-05-17T07:35:59Z</time>
      </trkpt>
      <trkpt lat="45.19936" lon="6.17118">
        <ele>2466.8664550781</ele>
        <time>2015-05-17T07:36:03Z</time>
      </trkpt>
      <trkpt lat="45.19949" lon="6.17124">
        <ele>2462.48046875</ele>
        <time>2015-05-17T07:36:05Z</time>
      </trkpt>
      <trkpt lat="45.19956" lon="6.17137">
        <ele>2462.2163085938</ele>
        <time>2015-05-17T07:36:07Z</time>
      </trkpt>
      <trkpt lat="45.19958" lon="6.17147">
        <ele>2462.5466308594</ele>
        <time>2015-05-17T07:36:09Z</time>
      </trkpt>
      <trkpt lat="45.19958" lon="6.1715">
        <ele>2463.4187011719</ele>
        <time>2015-05-17T07:36:13Z</time>
      </trkpt>
      <trkpt lat="45.19954" lon="6.17152">
        <ele>2466.4331054688</ele>
        <time>2015-05-17T07:36:22Z</time>
      </trkpt>
      <trkpt lat="45.19947" lon="6.17155">
        <ele>2472.5598144531</ele>
        <time>2015-05-17T07:36:25Z</time>
      </trkpt>
      <trkpt lat="45.19957" lon="6.17163">
        <ele>2466.7224121094</ele>
        <time>2015-05-17T07:36:28Z</time>
      </trkpt>
      <trkpt lat="45.19968" lon="6.17175">
        <ele>2459.5529785156</ele>
        <time>2015-05-17T07:36:30Z</time>
      </trkpt>
      <trkpt lat="45.20006" lon="6.17228">
        <ele>2446.2072753906</ele>
        <time>2015-05-17T07:36:36Z</time>
      </trkpt>
      <trkpt lat="45.20021" lon="6.17246">
        <ele>2443.1245117188</ele>
        <time>2015-05-17T07:36:40Z</time>
      </trkpt>
      <trkpt lat="45.20027" lon="6.17252">
        <ele>2441.5629882812</ele>
        <time>2015-05-17T07:36:44Z</time>
      </trkpt>
      <trkpt lat="45.20029" lon="6.17253">
        <ele>2441.5756835938</ele>
        <time>2015-05-17T07:36:50Z</time>
      </trkpt>
      <trkpt lat="45.20038" lon="6.17256">
        <ele>2441.3508300781</ele>
        <time>2015-05-17T07:36:53Z</time>
      </trkpt>
      <trkpt lat="45.20044" lon="6.17259">
        <ele>2441.0791015625</ele>
        <time>2015-05-17T07:36:58Z</time>
      </trkpt>
      <trkpt lat="45.20048" lon="6.17263">
        <ele>2440.8815917969</ele>
        <time>2015-05-17T07:37:03Z</time>
      </trkpt>
      <trkpt lat="45.20062" lon="6.1728">
        <ele>2440.11328125</ele>
        <time>2015-05-17T07:37:28Z</time>
      </trkpt>
      <trkpt lat="45.20071" lon="6.17289">
        <ele>2440.3645019531</ele>
        <time>2015-05-17T07:37:43Z</time>
      </trkpt>
      <trkpt lat="45.20087" lon="6.17298">
        <ele>2440.6870117188</ele>
        <time>2015-05-17T07:38:08Z</time>
      </trkpt>
      <trkpt lat="45.20096" lon="6.17301">
        <ele>2442.7075195312</ele>
        <time>2015-05-17T07:38:27Z</time>
      </trkpt>
      <trkpt lat="45.20114" lon="6.17332">
        <ele>2447.2722167969</ele>
        <time>2015-05-17T07:39:13Z</time>
      </trkpt>
      <trkpt lat="45.20131" lon="6.17358">
        <ele>2448.1110839844</ele>
        <time>2015-05-17T07:39:44Z</time>
      </trkpt>
      <trkpt lat="45.20148" lon="6.17368">
        <ele>2450.53125</ele>
        <time>2015-05-17T07:40:10Z</time>
      </trkpt>
      <trkpt lat="45.20167" lon="6.17386">
        <ele>2450.9145507812</ele>
        <time>2015-05-17T07:40:35Z</time>
      </trkpt>
      <trkpt lat="45.20185" lon="6.174">
        <ele>2454.2119140625</ele>
        <time>2015-05-17T07:41:02Z</time>
      </trkpt>
      <trkpt lat="45.20205" lon="6.17403">
        <ele>2456.8913574219</ele>
        <time>2015-05-17T07:41:23Z</time>
      </trkpt>
      <trkpt lat="45.20233" lon="6.17409">
        <ele>2458.1218261719</ele>
        <time>2015-05-17T07:41:43Z</time>
      </trkpt>
      <trkpt lat="45.20256" lon="6.17426">
        <ele>2457.626953125</ele>
        <time>2015-05-17T07:41:53Z</time>
      </trkpt>
      <trkpt lat="45.20274" lon="6.17447">
        <ele>2458.4147949219</ele>
        <time>2015-05-17T07:42:03Z</time>
      </trkpt>
      <trkpt lat="45.2029" lon="6.17467">
        <ele>2453.2111816406</ele>
        <time>2015-05-17T07:42:24Z</time>
      </trkpt>
      <trkpt lat="45.20299" lon="6.17488">
        <ele>2449.3498535156</ele>
        <time>2015-05-17T07:42:40Z</time>
      </trkpt>
      <trkpt lat="45.20309" lon="6.17509">
        <ele>2447.3640136719</ele>
        <time>2015-05-17T07:42:48Z</time>
      </trkpt>
      <trkpt lat="45.20323" lon="6.17527">
        <ele>2446.7648925781</ele>
        <time>2015-05-17T07:43:07Z</time>
      </trkpt>
      <trkpt lat="45.20341" lon="6.17534">
        <ele>2444.4079589844</ele>
        <time>2015-05-17T07:43:24Z</time>
      </trkpt>
      <trkpt lat="45.20348" lon="6.17544">
        <ele>2444.2751464844</ele>
        <time>2015-05-17T07:43:41Z</time>
      </trkpt>
      <trkpt lat="45.20377" lon="6.17551">
        <ele>2442.3259277344</ele>
        <time>2015-05-17T07:44:09Z</time>
      </trkpt>
      <trkpt lat="45.20392" lon="6.17563">
        <ele>2442.7778320312</ele>
        <time>2015-05-17T07:44:22Z</time>
      </trkpt>
      <trkpt lat="45.20402" lon="6.17582">
        <ele>2445.2856445312</ele>
        <time>2015-05-17T07:44:53Z</time>
      </trkpt>
      <trkpt lat="45.20385" lon="6.17604">
        <ele>2447.3784179688</ele>
        <time>2015-05-17T07:45:18Z</time>
      </trkpt>
      <trkpt lat="45.20391" lon="6.17611">
        <ele>2448.1809082031</ele>
        <time>2015-05-17T07:45:29Z</time>
      </trkpt>
      <trkpt lat="45.20401" lon="6.17616">
        <ele>2449.8552246094</ele>
        <time>2015-05-17T07:45:43Z</time>
      </trkpt>
      <trkpt lat="45.20405" lon="6.17618">
        <ele>2450.4833984375</ele>
        <time>2015-05-17T07:45:50Z</time>
      </trkpt>
      <trkpt lat="45.20406" lon="6.17621">
        <ele>2450.9108886719</ele>
        <time>2015-05-17T07:45:56Z</time>
      </trkpt>
      <trkpt lat="45.20418" lon="6.17624">
        <ele>2452.3940429688</ele>
        <time>2015-05-17T07:46:16Z</time>
      </trkpt>
      <trkpt lat="45.20419" lon="6.17626">
        <ele>2452.5319824219</ele>
        <time>2015-05-17T07:46:18Z</time>
      </trkpt>
      <trkpt lat="45.20421" lon="6.17629">
        <ele>2452.857421875</ele>
        <time>2015-05-17T07:46:24Z</time>
      </trkpt>
      <trkpt lat="45.20425" lon="6.17647">
        <ele>2455.1994628906</ele>
        <time>2015-05-17T07:46:49Z</time>
      </trkpt>
      <trkpt lat="45.20426" lon="6.17657">
        <ele>2456.6345214844</ele>
        <time>2015-05-17T07:47:04Z</time>
      </trkpt>
      <trkpt lat="45.20426" lon="6.17659">
        <ele>2456.8681640625</ele>
        <time>2015-05-17T07:47:06Z</time>
      </trkpt>
      <trkpt lat="45.20425" lon="6.17677">
        <ele>2459.6083984375</ele>
        <time>2015-05-17T07:47:14Z</time>
      </trkpt>
      <trkpt lat="45.20427" lon="6.17692">
        <ele>2462.0017089844</ele>
        <time>2015-05-17T07:47:35Z</time>
      </trkpt>
      <trkpt lat="45.20424" lon="6.17701">
        <ele>2463.2048339844</ele>
        <time>2015-05-17T07:47:50Z</time>
      </trkpt>
      <trkpt lat="45.20424" lon="6.17703">
        <ele>2463.4658203125</ele>
        <time>2015-05-17T07:47:53Z</time>
      </trkpt>
      <trkpt lat="45.20426" lon="6.17727">
        <ele>2467.1154785156</ele>
        <time>2015-05-17T07:48:28Z</time>
      </trkpt>
      <trkpt lat="45.20444" lon="6.1776">
        <ele>2473.3715820312</ele>
        <time>2015-05-17T07:49:42Z</time>
      </trkpt>
      <trkpt lat="45.20449" lon="6.17771">
        <ele>2475.24609375</ele>
        <time>2015-05-17T07:50:08Z</time>
      </trkpt>
      <trkpt lat="45.20451" lon="6.1778">
        <ele>2476.6975097656</ele>
        <time>2015-05-17T07:50:25Z</time>
      </trkpt>
      <trkpt lat="45.20453" lon="6.17792">
        <ele>2479.2392578125</ele>
        <time>2015-05-17T07:50:50Z</time>
      </trkpt>
      <trkpt lat="45.20457" lon="6.17806">
        <ele>2482.5378417969</ele>
        <time>2015-05-17T07:50:57Z</time>
      </trkpt>
      <trkpt lat="45.20463" lon="6.17819">
        <ele>2486.0556640625</ele>
        <time>2015-05-17T07:51:13Z</time>
      </trkpt>
      <trkpt lat="45.20466" lon="6.1782">
        <ele>2486.6208496094</ele>
        <time>2015-05-17T07:51:17Z</time>
      </trkpt>
      <trkpt lat="45.20501" lon="6.17817">
        <ele>2491.6962890625</ele>
        <time>2015-05-17T07:51:47Z</time>
      </trkpt>
      <trkpt lat="45.20539" lon="6.17821">
        <ele>2497.4438476562</ele>
        <time>2015-05-17T07:52:27Z</time>
      </trkpt>
      <trkpt lat="45.20549" lon="6.1782">
        <ele>2498.7209472656</ele>
        <time>2015-05-17T07:52:37Z</time>
      </trkpt>
      <trkpt lat="45.20599" lon="6.17846">
        <ele>2507.3552246094</ele>
        <time>2015-05-17T07:53:35Z</time>
      </trkpt>
      <trkpt lat="45.20607" lon="6.17856">
        <ele>2510.3896484375</ele>
        <time>2015-05-17T07:53:49Z</time>
      </trkpt>
      <trkpt lat="45.20622" lon="6.17864">
        <ele>2512.44140625</ele>
        <time>2015-05-17T07:54:04Z</time>
      </trkpt>
      <trkpt lat="45.20624" lon="6.17867">
        <ele>2513.2790527344</ele>
        <time>2015-05-17T07:54:08Z</time>
      </trkpt>
      <trkpt lat="45.20641" lon="6.17898">
        <ele>2520.8415527344</ele>
        <time>2015-05-17T07:54:44Z</time>
      </trkpt>
      <trkpt lat="45.20654" lon="6.17928">
        <ele>2526.9406738281</ele>
        <time>2015-05-17T07:55:18Z</time>
      </trkpt>
      <trkpt lat="45.20655" lon="6.1793">
        <ele>2527.2668457031</ele>
        <time>2015-05-17T07:55:23Z</time>
      </trkpt>
      <trkpt lat="45.20662" lon="6.1795">
        <ele>2531.3679199219</ele>
        <time>2015-05-17T07:55:45Z</time>
      </trkpt>
      <trkpt lat="45.2067" lon="6.1796">
        <ele>2533.2485351562</ele>
        <time>2015-05-17T07:56:00Z</time>
      </trkpt>
      <trkpt lat="45.20672" lon="6.17977">
        <ele>2536.931640625</ele>
        <time>2015-05-17T07:56:24Z</time>
      </trkpt>
      <trkpt lat="45.20674" lon="6.17981">
        <ele>2538.0783691406</ele>
        <time>2015-05-17T07:56:30Z</time>
      </trkpt>
      <trkpt lat="45.20679" lon="6.17993">
        <ele>2540.8420410156</ele>
        <time>2015-05-17T07:56:45Z</time>
      </trkpt>
      <trkpt lat="45.20696" lon="6.1801">
        <ele>2544.9614257812</ele>
        <time>2015-05-17T07:57:12Z</time>
      </trkpt>
      <trkpt lat="45.20718" lon="6.18039">
        <ele>2553.5395507812</ele>
        <time>2015-05-17T07:57:52Z</time>
      </trkpt>
      <trkpt lat="45.20732" lon="6.18063">
        <ele>2559.8044433594</ele>
        <time>2015-05-17T07:58:23Z</time>
      </trkpt>
      <trkpt lat="45.20738" lon="6.18076">
        <ele>2562.603515625</ele>
        <time>2015-05-17T07:58:30Z</time>
      </trkpt>
      <trkpt lat="45.2074" lon="6.18096">
        <ele>2567.4580078125</ele>
        <time>2015-05-17T07:58:52Z</time>
      </trkpt>
      <trkpt lat="45.20735" lon="6.18099">
        <ele>2568.1303710938</ele>
        <time>2015-05-17T07:58:58Z</time>
      </trkpt>
      <trkpt lat="45.20725" lon="6.18098">
        <ele>2568.1274414062</ele>
        <time>2015-05-17T07:59:13Z</time>
      </trkpt>
      <trkpt lat="45.20711" lon="6.18097">
        <ele>2567.8171386719</ele>
        <time>2015-05-17T07:59:23Z</time>
      </trkpt>
      <trkpt lat="45.20699" lon="6.18093">
        <ele>2566.8034667969</ele>
        <time>2015-05-17T07:59:31Z</time>
      </trkpt>
      <trkpt lat="45.20689" lon="6.18091">
        <ele>2566.1359863281</ele>
        <time>2015-05-17T07:59:40Z</time>
      </trkpt>
      <trkpt lat="45.20625" lon="6.18067">
        <ele>2559.4516601562</ele>
        <time>2015-05-17T08:00:26Z</time>
      </trkpt>
      <trkpt lat="45.20603" lon="6.18053">
        <ele>2555.9196777344</ele>
        <time>2015-05-17T08:00:40Z</time>
      </trkpt>
      <trkpt lat="45.20591" lon="6.18047">
        <ele>2553.6879882812</ele>
        <time>2015-05-17T08:00:49Z</time>
      </trkpt>
      <trkpt lat="45.20578" lon="6.18049">
        <ele>2551.7661132812</ele>
        <time>2015-05-17T08:01:00Z</time>
      </trkpt>
      <trkpt lat="45.2057" lon="6.18057">
        <ele>2550.3278808594</ele>
        <time>2015-05-17T08:01:10Z</time>
      </trkpt>
      <trkpt lat="45.20559" lon="6.18064">
        <ele>2547.1472167969</ele>
        <time>2015-05-17T08:01:24Z</time>
      </trkpt>
      <trkpt lat="45.20562" lon="6.18058">
        <ele>2547.4741210938</ele>
        <time>2015-05-17T08:01:31Z</time>
      </trkpt>
      <trkpt lat="45.2057" lon="6.18051">
        <ele>2549.6281738281</ele>
        <time>2015-05-17T08:01:37Z</time>
      </trkpt>
      <trkpt lat="45.20578" lon="6.18044">
        <ele>2550.9438476562</ele>
        <time>2015-05-17T08:01:46Z</time>
      </trkpt>
      <trkpt lat="45.20585" lon="6.18041">
        <ele>2552.033203125</ele>
        <time>2015-05-17T08:01:56Z</time>
      </trkpt>
      <trkpt lat="45.206" lon="6.18049">
        <ele>2554.8347167969</ele>
        <time>2015-05-17T08:02:10Z</time>
      </trkpt>
      <trkpt lat="45.20618" lon="6.18061">
        <ele>2558.1127929688</ele>
        <time>2015-05-17T08:02:28Z</time>
      </trkpt>
      <trkpt lat="45.20626" lon="6.18066">
        <ele>2558.9538574219</ele>
        <time>2015-05-17T08:02:35Z</time>
      </trkpt>
      <trkpt lat="45.20689" lon="6.18087">
        <ele>2565.390625</ele>
        <time>2015-05-17T08:03:47Z</time>
      </trkpt>
      <trkpt lat="45.20742" lon="6.18115">
        <ele>2571.7507324219</ele>
        <time>2015-05-17T08:04:53Z</time>
      </trkpt>
      <trkpt lat="45.20749" lon="6.18122">
        <ele>2572.9953613281</ele>
        <time>2015-05-17T08:05:01Z</time>
      </trkpt>
      <trkpt lat="45.20771" lon="6.18143">
        <ele>2573.6774902344</ele>
        <time>2015-05-17T08:05:29Z</time>
      </trkpt>
      <trkpt lat="45.20782" lon="6.18148">
        <ele>2573.2905273438</ele>
        <time>2015-05-17T08:05:43Z</time>
      </trkpt>
      <trkpt lat="45.20802" lon="6.18166">
        <ele>2573.5849609375</ele>
        <time>2015-05-17T08:06:09Z</time>
      </trkpt>
      <trkpt lat="45.20806" lon="6.18169">
        <ele>2573.3896484375</ele>
        <time>2015-05-17T08:06:15Z</time>
      </trkpt>
      <trkpt lat="45.2082" lon="6.18184">
        <ele>2573.2600097656</ele>
        <time>2015-05-17T08:06:35Z</time>
      </trkpt>
      <trkpt lat="45.20829" lon="6.182">
        <ele>2571.4289550781</ele>
        <time>2015-05-17T08:06:51Z</time>
      </trkpt>
      <trkpt lat="45.20849" lon="6.18215">
        <ele>2569.794921875</ele>
        <time>2015-05-17T08:07:15Z</time>
      </trkpt>
      <trkpt lat="45.20852" lon="6.18217">
        <ele>2569.7973632812</ele>
        <time>2015-05-17T08:07:19Z</time>
      </trkpt>
      <trkpt lat="45.20854" lon="6.18223">
        <ele>2569.5725097656</ele>
        <time>2015-05-17T08:07:26Z</time>
      </trkpt>
      <trkpt lat="45.20873" lon="6.18223">
        <ele>2571.4428710938</ele>
        <time>2015-05-17T08:07:43Z</time>
      </trkpt>
      <trkpt lat="45.20882" lon="6.18222">
        <ele>2572.9206542969</ele>
        <time>2015-05-17T08:07:55Z</time>
      </trkpt>
      <trkpt lat="45.20883" lon="6.18222">
        <ele>2573.1650390625</ele>
        <time>2015-05-17T08:07:58Z</time>
      </trkpt>
      <trkpt lat="45.20888" lon="6.18217">
        <ele>2573.4426269531</ele>
        <time>2015-05-17T08:08:13Z</time>
      </trkpt>
      <trkpt lat="45.20901" lon="6.18219">
        <ele>2576.8674316406</ele>
        <time>2015-05-17T08:08:16Z</time>
      </trkpt>
      <trkpt lat="45.20917" lon="6.18223">
        <ele>2581.0498046875</ele>
        <time>2015-05-17T08:08:36Z</time>
      </trkpt>
      <trkpt lat="45.20926" lon="6.18229">
        <ele>2583.1643066406</ele>
        <time>2015-05-17T08:08:50Z</time>
      </trkpt>
      <trkpt lat="45.20927" lon="6.1823">
        <ele>2583.5285644531</ele>
        <time>2015-05-17T08:08:52Z</time>
      </trkpt>
      <trkpt lat="45.20944" lon="6.18233">
        <ele>2587.41796875</ele>
        <time>2015-05-17T08:09:15Z</time>
      </trkpt>
      <trkpt lat="45.20948" lon="6.18233">
        <ele>2587.5812988281</ele>
        <time>2015-05-17T08:09:21Z</time>
      </trkpt>
      <trkpt lat="45.20956" lon="6.18242">
        <ele>2588.8173828125</ele>
        <time>2015-05-17T08:09:37Z</time>
      </trkpt>
      <trkpt lat="45.20967" lon="6.18252">
        <ele>2589.578125</ele>
        <time>2015-05-17T08:09:53Z</time>
      </trkpt>
      <trkpt lat="45.20974" lon="6.18257">
        <ele>2588.2607421875</ele>
        <time>2015-05-17T08:10:10Z</time>
      </trkpt>
      <trkpt lat="45.20988" lon="6.18275">
        <ele>2584.3352050781</ele>
        <time>2015-05-17T08:10:22Z</time>
      </trkpt>
      <trkpt lat="45.20989" lon="6.18279">
        <ele>2583.3359375</ele>
        <time>2015-05-17T08:10:24Z</time>
      </trkpt>
      <trkpt lat="45.20989" lon="6.18287">
        <ele>2579.6311035156</ele>
        <time>2015-05-17T08:10:32Z</time>
      </trkpt>
      <trkpt lat="45.20989" lon="6.18291">
        <ele>2578.1396484375</ele>
        <time>2015-05-17T08:10:37Z</time>
      </trkpt>
      <trkpt lat="45.20995" lon="6.18304">
        <ele>2572.1950683594</ele>
        <time>2015-05-17T08:10:39Z</time>
      </trkpt>
      <trkpt lat="45.21019" lon="6.1832">
        <ele>2569.0974121094</ele>
        <time>2015-05-17T08:10:45Z</time>
      </trkpt>
      <trkpt lat="45.21035" lon="6.18332">
        <ele>2565.546875</ele>
        <time>2015-05-17T08:10:51Z</time>
      </trkpt>
      <trkpt lat="45.21041" lon="6.18337">
        <ele>2564.3825683594</ele>
        <time>2015-05-17T08:10:53Z</time>
      </trkpt>
      <trkpt lat="45.21056" lon="6.18353">
        <ele>2559.75</ele>
        <time>2015-05-17T08:10:59Z</time>
      </trkpt>
      <trkpt lat="45.21086" lon="6.18384">
        <ele>2551.8061523438</ele>
        <time>2015-05-17T08:11:07Z</time>
      </trkpt>
      <trkpt lat="45.21093" lon="6.18394">
        <ele>2549.1450195312</ele>
        <time>2015-05-17T08:11:09Z</time>
      </trkpt>
      <trkpt lat="45.21114" lon="6.1844">
        <ele>2538.1040039062</ele>
        <time>2015-05-17T08:11:16Z</time>
      </trkpt>
      <trkpt lat="45.21116" lon="6.18453">
        <ele>2534.583984375</ele>
        <time>2015-05-17T08:11:18Z</time>
      </trkpt>
      <trkpt lat="45.21116" lon="6.18481">
        <ele>2526.0549316406</ele>
        <time>2015-05-17T08:11:22Z</time>
      </trkpt>
      <trkpt lat="45.21102" lon="6.18532">
        <ele>2508.9626464844</ele>
        <time>2015-05-17T08:11:30Z</time>
      </trkpt>
      <trkpt lat="45.21106" lon="6.18573">
        <ele>2507.4536132812</ele>
        <time>2015-05-17T08:11:34Z</time>
      </trkpt>
      <trkpt lat="45.2111" lon="6.18587">
        <ele>2508.6865234375</ele>
        <time>2015-05-17T08:11:36Z</time>
      </trkpt>
      <trkpt lat="45.2112" lon="6.1862">
        <ele>2507.7551269531</ele>
        <time>2015-05-17T08:11:44Z</time>
      </trkpt>
      <trkpt lat="45.21122" lon="6.18626">
        <ele>2507.1354980469</ele>
        <time>2015-05-17T08:11:46Z</time>
      </trkpt>
      <trkpt lat="45.21124" lon="6.1863">
        <ele>2506.7092285156</ele>
        <time>2015-05-17T08:11:48Z</time>
      </trkpt>
      <trkpt lat="45.2113" lon="6.18634">
        <ele>2504.9216308594</ele>
        <time>2015-05-17T08:11:53Z</time>
      </trkpt>
      <trkpt lat="45.21137" lon="6.18635">
        <ele>2502.8330078125</ele>
        <time>2015-05-17T08:11:55Z</time>
      </trkpt>
      <trkpt lat="45.21183" lon="6.18642">
        <ele>2486.6245117188</ele>
        <time>2015-05-17T08:12:03Z</time>
      </trkpt>
      <trkpt lat="45.21227" lon="6.18655">
        <ele>2477.5151367188</ele>
        <time>2015-05-17T08:12:11Z</time>
      </trkpt>
      <trkpt lat="45.21294" lon="6.18673">
        <ele>2459.2609863281</ele>
        <time>2015-05-17T08:12:25Z</time>
      </trkpt>
      <trkpt lat="45.21323" lon="6.18686">
        <ele>2447.1950683594</ele>
        <time>2015-05-17T08:12:31Z</time>
      </trkpt>
      <trkpt lat="45.21354" lon="6.187">
        <ele>2440.8713378906</ele>
        <time>2015-05-17T08:12:37Z</time>
      </trkpt>
      <trkpt lat="45.21398" lon="6.18722">
        <ele>2437.0073242188</ele>
        <time>2015-05-17T08:12:45Z</time>
      </trkpt>
      <trkpt lat="45.21409" lon="6.18729">
        <ele>2434.8151855469</ele>
        <time>2015-05-17T08:12:47Z</time>
      </trkpt>
      <trkpt lat="45.21471" lon="6.18763">
        <ele>2423.7795410156</ele>
        <time>2015-05-17T08:12:57Z</time>
      </trkpt>
      <trkpt lat="45.21487" lon="6.18776">
        <ele>2420.3100585938</ele>
        <time>2015-05-17T08:13:01Z</time>
      </trkpt>
      <trkpt lat="45.21526" lon="6.18804">
        <ele>2418.2822265625</ele>
        <time>2015-05-17T08:13:09Z</time>
      </trkpt>
      <trkpt lat="45.21537" lon="6.18811">
        <ele>2417.3588867188</ele>
        <time>2015-05-17T08:13:13Z</time>
      </trkpt>
      <trkpt lat="45.2154" lon="6.18815">
        <ele>2416.8742675781</ele>
        <time>2015-05-17T08:13:15Z</time>
      </trkpt>
      <trkpt lat="45.21545" lon="6.18821">
        <ele>2416.09375</ele>
        <time>2015-05-17T08:13:20Z</time>
      </trkpt>
      <trkpt lat="45.21546" lon="6.18823">
        <ele>2415.8776855469</ele>
        <time>2015-05-17T08:13:23Z</time>
      </trkpt>
      <trkpt lat="45.21555" lon="6.18839">
        <ele>2413.2424316406</ele>
        <time>2015-05-17T08:13:31Z</time>
      </trkpt>
      <trkpt lat="45.2156" lon="6.18845">
        <ele>2411.6010742188</ele>
        <time>2015-05-17T08:13:33Z</time>
      </trkpt>
      <trkpt lat="45.21574" lon="6.1887">
        <ele>2405.7817382812</ele>
        <time>2015-05-17T08:13:37Z</time>
      </trkpt>
      <trkpt lat="45.21584" lon="6.18882">
        <ele>2403.0844726562</ele>
        <time>2015-05-17T08:13:39Z</time>
      </trkpt>
      <trkpt lat="45.21597" lon="6.1889">
        <ele>2399.7443847656</ele>
        <time>2015-05-17T08:13:41Z</time>
      </trkpt>
      <trkpt lat="45.2161" lon="6.18896">
        <ele>2397.4973144531</ele>
        <time>2015-05-17T08:13:43Z</time>
      </trkpt>
      <trkpt lat="45.2166" lon="6.18915">
        <ele>2391.201171875</ele>
        <time>2015-05-17T08:13:51Z</time>
      </trkpt>
      <trkpt lat="45.21668" lon="6.18917">
        <ele>2389.6359863281</ele>
        <time>2015-05-17T08:13:53Z</time>
      </trkpt>
      <trkpt lat="45.21695" lon="6.18922">
        <ele>2381.8996582031</ele>
        <time>2015-05-17T08:14:01Z</time>
      </trkpt>
      <trkpt lat="45.21704" lon="6.18919">
        <ele>2380.0751953125</ele>
        <time>2015-05-17T08:14:03Z</time>
      </trkpt>
      <trkpt lat="45.21716" lon="6.1892">
        <ele>2380.2912597656</ele>
        <time>2015-05-17T08:14:05Z</time>
      </trkpt>
      <trkpt lat="45.21756" lon="6.18927">
        <ele>2372.3139648438</ele>
        <time>2015-05-17T08:14:11Z</time>
      </trkpt>
      <trkpt lat="45.21788" lon="6.18935">
        <ele>2363.5776367188</ele>
        <time>2015-05-17T08:14:15Z</time>
      </trkpt>
      <trkpt lat="45.2183" lon="6.1895">
        <ele>2354.109375</ele>
        <time>2015-05-17T08:14:23Z</time>
      </trkpt>
      <trkpt lat="45.21878" lon="6.18963">
        <ele>2340.0258789062</ele>
        <time>2015-05-17T08:14:31Z</time>
      </trkpt>
      <trkpt lat="45.21901" lon="6.18963">
        <ele>2333.3645019531</ele>
        <time>2015-05-17T08:14:35Z</time>
      </trkpt>
      <trkpt lat="45.21921" lon="6.18961">
        <ele>2328.2470703125</ele>
        <time>2015-05-17T08:14:39Z</time>
      </trkpt>
      <trkpt lat="45.21957" lon="6.18971">
        <ele>2318.0610351562</ele>
        <time>2015-05-17T08:14:47Z</time>
      </trkpt>
      <trkpt lat="45.21969" lon="6.18978">
        <ele>2318.587890625</ele>
        <time>2015-05-17T08:14:51Z</time>
      </trkpt>
      <trkpt lat="45.21983" lon="6.18986">
        <ele>2318.2946777344</ele>
        <time>2015-05-17T08:14:57Z</time>
      </trkpt>
      <trkpt lat="45.21994" lon="6.18991">
        <ele>2316.642578125</ele>
        <time>2015-05-17T08:15:03Z</time>
      </trkpt>
      <trkpt lat="45.22006" lon="6.1899">
        <ele>2313.1140136719</ele>
        <time>2015-05-17T08:15:11Z</time>
      </trkpt>
      <trkpt lat="45.22018" lon="6.18988">
        <ele>2309.0354003906</ele>
        <time>2015-05-17T08:15:15Z</time>
      </trkpt>
      <trkpt lat="45.22026" lon="6.18986">
        <ele>2306.3986816406</ele>
        <time>2015-05-17T08:15:17Z</time>
      </trkpt>
      <trkpt lat="45.22048" lon="6.18987">
        <ele>2300.5229492188</ele>
        <time>2015-05-17T08:15:21Z</time>
      </trkpt>
      <trkpt lat="45.22117" lon="6.18995">
        <ele>2282.0061035156</ele>
        <time>2015-05-17T08:15:33Z</time>
      </trkpt>
      <trkpt lat="45.22151" lon="6.18998">
        <ele>2277.6674804688</ele>
        <time>2015-05-17T08:15:41Z</time>
      </trkpt>
      <trkpt lat="45.22157" lon="6.18999">
        <ele>2276.6118164062</ele>
        <time>2015-05-17T08:15:43Z</time>
      </trkpt>
      <trkpt lat="45.22176" lon="6.19015">
        <ele>2272.4147949219</ele>
        <time>2015-05-17T08:15:51Z</time>
      </trkpt>
      <trkpt lat="45.2218" lon="6.19039">
        <ele>2273.3193359375</ele>
        <time>2015-05-17T08:15:57Z</time>
      </trkpt>
      <trkpt lat="45.22185" lon="6.19054">
        <ele>2274.1501464844</ele>
        <time>2015-05-17T08:15:59Z</time>
      </trkpt>
      <trkpt lat="45.22194" lon="6.19064">
        <ele>2274.90234375</ele>
        <time>2015-05-17T08:16:01Z</time>
      </trkpt>
      <trkpt lat="45.22244" lon="6.19076">
        <ele>2263.13671875</ele>
        <time>2015-05-17T08:16:12Z</time>
      </trkpt>
      <trkpt lat="45.22253" lon="6.19076">
        <ele>2259.7534179688</ele>
        <time>2015-05-17T08:16:14Z</time>
      </trkpt>
      <trkpt lat="45.22271" lon="6.19067">
        <ele>2253.3332519531</ele>
        <time>2015-05-17T08:16:18Z</time>
      </trkpt>
      <trkpt lat="45.22278" lon="6.19065">
        <ele>2250.9609375</ele>
        <time>2015-05-17T08:16:20Z</time>
      </trkpt>
      <trkpt lat="45.22307" lon="6.19058">
        <ele>2241.1357421875</ele>
        <time>2015-05-17T08:16:28Z</time>
      </trkpt>
      <trkpt lat="45.22313" lon="6.19056">
        <ele>2240.2189941406</ele>
        <time>2015-05-17T08:16:30Z</time>
      </trkpt>
      <trkpt lat="45.22326" lon="6.19055">
        <ele>2238.8701171875</ele>
        <time>2015-05-17T08:16:36Z</time>
      </trkpt>
      <trkpt lat="45.22329" lon="6.19054">
        <ele>2238.6752929688</ele>
        <time>2015-05-17T08:16:39Z</time>
      </trkpt>
      <trkpt lat="45.22334" lon="6.19047">
        <ele>2238.5805664062</ele>
        <time>2015-05-17T08:16:50Z</time>
      </trkpt>
      <trkpt lat="45.22341" lon="6.19055">
        <ele>2234.0830078125</ele>
        <time>2015-05-17T08:16:56Z</time>
      </trkpt>
      <trkpt lat="45.22354" lon="6.1906">
        <ele>2227.1376953125</ele>
        <time>2015-05-17T08:17:00Z</time>
      </trkpt>
      <trkpt lat="45.22388" lon="6.19045">
        <ele>2218.8818359375</ele>
        <time>2015-05-17T08:17:10Z</time>
      </trkpt>
      <trkpt lat="45.22393" lon="6.19044">
        <ele>2217.1027832031</ele>
        <time>2015-05-17T08:17:12Z</time>
      </trkpt>
      <trkpt lat="45.22402" lon="6.19055">
        <ele>2211.8425292969</ele>
        <time>2015-05-17T08:17:17Z</time>
      </trkpt>
      <trkpt lat="45.22411" lon="6.19065">
        <ele>2206.6176757812</ele>
        <time>2015-05-17T08:17:19Z</time>
      </trkpt>
      <trkpt lat="45.22421" lon="6.19089">
        <ele>2199.8923339844</ele>
        <time>2015-05-17T08:17:23Z</time>
      </trkpt>
      <trkpt lat="45.22423" lon="6.19096">
        <ele>2198.458984375</ele>
        <time>2015-05-17T08:17:25Z</time>
      </trkpt>
      <trkpt lat="45.22425" lon="6.19095">
        <ele>2197.5749511719</ele>
        <time>2015-05-17T08:17:32Z</time>
      </trkpt>
      <trkpt lat="45.2243" lon="6.19081">
        <ele>2197.240234375</ele>
        <time>2015-05-17T08:17:36Z</time>
      </trkpt>
      <trkpt lat="45.22445" lon="6.19054">
        <ele>2194.1374511719</ele>
        <time>2015-05-17T08:17:42Z</time>
      </trkpt>
      <trkpt lat="45.22451" lon="6.19047">
        <ele>2192.6611328125</ele>
        <time>2015-05-17T08:17:45Z</time>
      </trkpt>
      <trkpt lat="45.22456" lon="6.19049">
        <ele>2190.6596679688</ele>
        <time>2015-05-17T08:17:47Z</time>
      </trkpt>
      <trkpt lat="45.22465" lon="6.19057">
        <ele>2186.4350585938</ele>
        <time>2015-05-17T08:17:50Z</time>
      </trkpt>
      <trkpt lat="45.22477" lon="6.1906">
        <ele>2182.0827636719</ele>
        <time>2015-05-17T08:17:54Z</time>
      </trkpt>
      <trkpt lat="45.22483" lon="6.19061">
        <ele>2180.3212890625</ele>
        <time>2015-05-17T08:18:00Z</time>
      </trkpt>
      <trkpt lat="45.22485" lon="6.1906">
        <ele>2179.7290039062</ele>
        <time>2015-05-17T08:18:02Z</time>
      </trkpt>
      <trkpt lat="45.22501" lon="6.19053">
        <ele>2174.4289550781</ele>
        <time>2015-05-17T08:18:10Z</time>
      </trkpt>
      <trkpt lat="45.22503" lon="6.19052">
        <ele>2173.9067382812</ele>
        <time>2015-05-17T08:18:14Z</time>
      </trkpt>
      <trkpt lat="45.22513" lon="6.19057">
        <ele>2169.0258789062</ele>
        <time>2015-05-17T08:18:17Z</time>
      </trkpt>
      <trkpt lat="45.22515" lon="6.19056">
        <ele>2167.9477539062</ele>
        <time>2015-05-17T08:18:19Z</time>
      </trkpt>
      <trkpt lat="45.22514" lon="6.19053">
        <ele>2168.2270507812</ele>
        <time>2015-05-17T08:18:26Z</time>
      </trkpt>
      <trkpt lat="45.22517" lon="6.19047">
        <ele>2166.5815429688</ele>
        <time>2015-05-17T08:18:29Z</time>
      </trkpt>
      <trkpt lat="45.22522" lon="6.19045">
        <ele>2163.9897460938</ele>
        <time>2015-05-17T08:18:32Z</time>
      </trkpt>
      <trkpt lat="45.22525" lon="6.19039">
        <ele>2162.0893554688</ele>
        <time>2015-05-17T08:18:34Z</time>
      </trkpt>
      <trkpt lat="45.22535" lon="6.1904">
        <ele>2158.9033203125</ele>
        <time>2015-05-17T08:18:37Z</time>
      </trkpt>
      <trkpt lat="45.22545" lon="6.19048">
        <ele>2156.4106445312</ele>
        <time>2015-05-17T08:18:46Z</time>
      </trkpt>
      <trkpt lat="45.22554" lon="6.19067">
        <ele>2154.751953125</ele>
        <time>2015-05-17T08:19:04Z</time>
      </trkpt>
      <trkpt lat="45.22559" lon="6.19074">
        <ele>2153.8696289062</ele>
        <time>2015-05-17T08:19:12Z</time>
      </trkpt>
      <trkpt lat="45.22581" lon="6.19089">
        <ele>2148.5627441406</ele>
        <time>2015-05-17T08:19:34Z</time>
      </trkpt>
      <trkpt lat="45.22585" lon="6.19091">
        <ele>2147.4345703125</ele>
        <time>2015-05-17T08:19:38Z</time>
      </trkpt>
      <trkpt lat="45.22594" lon="6.19104">
        <ele>2144.7978515625</ele>
        <time>2015-05-17T08:19:50Z</time>
      </trkpt>
      <trkpt lat="45.226" lon="6.19112">
        <ele>2142.9680175781</ele>
        <time>2015-05-17T08:19:58Z</time>
      </trkpt>
      <trkpt lat="45.22623" lon="6.19134">
        <ele>2130.1921386719</ele>
        <time>2015-05-17T08:20:28Z</time>
      </trkpt>
      <trkpt lat="45.2263" lon="6.19146">
        <ele>2125.5827636719</ele>
        <time>2015-05-17T08:20:38Z</time>
      </trkpt>
      <trkpt lat="45.22631" lon="6.19149">
        <ele>2124.8952636719</ele>
        <time>2015-05-17T08:20:40Z</time>
      </trkpt>
      <trkpt lat="45.22633" lon="6.19163">
        <ele>2122.2973632812</ele>
        <time>2015-05-17T08:20:52Z</time>
      </trkpt>
      <trkpt lat="45.22641" lon="6.19168">
        <ele>2119.5615234375</ele>
        <time>2015-05-17T08:20:57Z</time>
      </trkpt>
      <trkpt lat="45.22656" lon="6.19176">
        <ele>2111.5563964844</ele>
        <time>2015-05-17T08:21:14Z</time>
      </trkpt>
      <trkpt lat="45.22663" lon="6.19187">
        <ele>2107.3212890625</ele>
        <time>2015-05-17T08:21:24Z</time>
      </trkpt>
      <trkpt lat="45.22668" lon="6.19191">
        <ele>2105.3610839844</ele>
        <time>2015-05-17T08:21:30Z</time>
      </trkpt>
      <trkpt lat="45.22673" lon="6.19194">
        <ele>2104.4494628906</ele>
        <time>2015-05-17T08:21:35Z</time>
      </trkpt>
      <trkpt lat="45.22694" lon="6.19219">
        <ele>2099.3505859375</ele>
        <time>2015-05-17T08:22:07Z</time>
      </trkpt>
      <trkpt lat="45.22719" lon="6.19232">
        <ele>2090.8596191406</ele>
        <time>2015-05-17T08:22:31Z</time>
      </trkpt>
      <trkpt lat="45.22722" lon="6.19234">
        <ele>2089.5102539062</ele>
        <time>2015-05-17T08:22:34Z</time>
      </trkpt>
      <trkpt lat="45.22726" lon="6.1924">
        <ele>2087.126953125</ele>
        <time>2015-05-17T08:22:40Z</time>
      </trkpt>
      <trkpt lat="45.2273" lon="6.19251">
        <ele>2083.720703125</ele>
        <time>2015-05-17T08:22:50Z</time>
      </trkpt>
      <trkpt lat="45.22729" lon="6.19254">
        <ele>2083.0441894531</ele>
        <time>2015-05-17T08:22:52Z</time>
      </trkpt>
      <trkpt lat="45.22712" lon="6.19292">
        <ele>2077.2915039062</ele>
        <time>2015-05-17T08:23:18Z</time>
      </trkpt>
      <trkpt lat="45.22716" lon="6.19292">
        <ele>2076.7438964844</ele>
        <time>2015-05-17T08:23:23Z</time>
      </trkpt>
      <trkpt lat="45.22725" lon="6.19291">
        <ele>2075.5959472656</ele>
        <time>2015-05-17T08:23:32Z</time>
      </trkpt>
      <trkpt lat="45.22726" lon="6.19297">
        <ele>2074.2165527344</ele>
        <time>2015-05-17T08:23:38Z</time>
      </trkpt>
      <trkpt lat="45.22724" lon="6.193">
        <ele>2073.8146972656</ele>
        <time>2015-05-17T08:23:44Z</time>
      </trkpt>
      <trkpt lat="45.22712" lon="6.19318">
        <ele>2072.3374023438</ele>
        <time>2015-05-17T08:23:56Z</time>
      </trkpt>
      <trkpt lat="45.22693" lon="6.19327">
        <ele>2076.4406738281</ele>
        <time>2015-05-17T08:24:10Z</time>
      </trkpt>
      <trkpt lat="45.22688" lon="6.19332">
        <ele>2078.1918945312</ele>
        <time>2015-05-17T08:24:17Z</time>
      </trkpt>
      <trkpt lat="45.22683" lon="6.19358">
        <ele>2078.4223632812</ele>
        <time>2015-05-17T08:24:34Z</time>
      </trkpt>
      <trkpt lat="45.22698" lon="6.19395">
        <ele>2076.1142578125</ele>
        <time>2015-05-17T08:25:06Z</time>
      </trkpt>
      <trkpt lat="45.22712" lon="6.19411">
        <ele>2075.8530273438</ele>
        <time>2015-05-17T08:25:22Z</time>
      </trkpt>
      <trkpt lat="45.2276" lon="6.19462">
        <ele>2078.6928710938</ele>
        <time>2015-05-17T08:26:22Z</time>
      </trkpt>
      <trkpt lat="45.22758" lon="6.19461">
        <ele>2078.5988769531</ele>
        <time>2015-05-17T08:26:40Z</time>
      </trkpt>
      <trkpt lat="45.22787" lon="6.19507">
        <ele>2081.5522460938</ele>
        <time>2015-05-17T08:27:14Z</time>
      </trkpt>
      <trkpt lat="45.22794" lon="6.19522">
        <ele>2082.4982910156</ele>
        <time>2015-05-17T08:27:25Z</time>
      </trkpt>
      <trkpt lat="45.22797" lon="6.19531">
        <ele>2083.3405761719</ele>
        <time>2015-05-17T08:27:31Z</time>
      </trkpt>
      <trkpt lat="45.22809" lon="6.19586">
        <ele>2084.6530761719</ele>
        <time>2015-05-17T08:28:04Z</time>
      </trkpt>
      <trkpt lat="45.22812" lon="6.19606">
        <ele>2084.5737304688</ele>
        <time>2015-05-17T08:28:16Z</time>
      </trkpt>
      <trkpt lat="45.22802" lon="6.19686">
        <ele>2083.8820800781</ele>
        <time>2015-05-17T08:29:01Z</time>
      </trkpt>
      <trkpt lat="45.22794" lon="6.19722">
        <ele>2082.9821777344</ele>
        <time>2015-05-17T08:29:28Z</time>
      </trkpt>
      <trkpt lat="45.22788" lon="6.19741">
        <ele>2082.1179199219</ele>
        <time>2015-05-17T08:29:39Z</time>
      </trkpt>
      <trkpt lat="45.22756" lon="6.19806">
        <ele>2085.9663085938</ele>
        <time>2015-05-17T08:30:24Z</time>
      </trkpt>
      <trkpt lat="45.22755" lon="6.1981">
        <ele>2085.6918945312</ele>
        <time>2015-05-17T08:30:26Z</time>
      </trkpt>
      <trkpt lat="45.22718" lon="6.19898">
        <ele>2086.0158691406</ele>
        <time>2015-05-17T08:31:24Z</time>
      </trkpt>
      <trkpt lat="45.2271" lon="6.19916">
        <ele>2085.9228515625</ele>
        <time>2015-05-17T08:31:36Z</time>
      </trkpt>
      <trkpt lat="45.22704" lon="6.19936">
        <ele>2085.6857910156</ele>
        <time>2015-05-17T08:31:49Z</time>
      </trkpt>
      <trkpt lat="45.22701" lon="6.19954">
        <ele>2083.4484863281</ele>
        <time>2015-05-17T08:32:00Z</time>
      </trkpt>
      <trkpt lat="45.22702" lon="6.19982">
        <ele>2078.1926269531</ele>
        <time>2015-05-17T08:32:16Z</time>
      </trkpt>
      <trkpt lat="45.22696" lon="6.2003">
        <ele>2073.1291503906</ele>
        <time>2015-05-17T08:32:43Z</time>
      </trkpt>
      <trkpt lat="45.22696" lon="6.20034">
        <ele>2072.5798339844</ele>
        <time>2015-05-17T08:32:45Z</time>
      </trkpt>
      <trkpt lat="45.22689" lon="6.2007">
        <ele>2069.1381835938</ele>
        <time>2015-05-17T08:33:05Z</time>
      </trkpt>
      <trkpt lat="45.22683" lon="6.2008">
        <ele>2068.6884765625</ele>
        <time>2015-05-17T08:33:16Z</time>
      </trkpt>
      <trkpt lat="45.22684" lon="6.20094">
        <ele>2068.1247558594</ele>
        <time>2015-05-17T08:33:47Z</time>
      </trkpt>
    </trkseg>
  </trk>
</gpx>